3 MEZZA MARATONA CITTA' DI MONOPOLI
CAMPIONATO REGIONALE 21 KM
F.I.D.A.L.
Organizzazione: ASD ATLETICA MONOPOLI
3 MEZZA MARATONA CITTA' DI MONOPOLI
Serie   -   Risultati
PIAZZA V. EMANUELE
Data: 09/12/2012   Ora Inizio: 09:00   Ora Fine: 11:30
Cl. Cat. Cl. Cat. Pett. Atleta F.C. Anno SocietÓ Intermedio Tempo
    1 TM     1 1177 CALIANDRO Francesco 1979 TA457 A.S.D ATL. PODISTICA PALAGIANO 33:40 1h11:12
    2 TM     2 2189 MILELLA Francesco 1981 BA025 A.S. AMATORI PUTIGNANO 33:39 1h11:22
    3 ASM     1 1272 SARDELLA Vito I 1974 CZ234 VIOLETTACLUB 33:40 1h11:37
    4 TM     3 1121 ALBANESE Cosimo Damiano 1985 TA446 A.S.D. MARATHON MASSAFRA 34:11 1h13:16
    5 MM35     1 1329 BERGAMO Cristian 1977 LE326 C.U.S. LECCE 36:02 1h14:43
    6 MM35     2 1178 BONGERMINO Vito 1974 TA459 TOP RUNNERS LATERZA 36:07 1h15:11
    7 ASM     2 1260 BRUNO Antonio I 1983 CZ009 LIBERTAS ATL.LAMEZIA 36:48 1h15:50
    8 MM40     1 1165 PALMISANO Claudio 1972 TA451 A.S.D. ATLETICA DON MILANI 35:08 1h16:10
    9 MM35     3 2737 GADALETA Sabino 1976 BA594 PEDONE-RICCARDI BISCEGLIE 35:52 1h16:57
    10 MM40     2 2735 CASSANO Michele 1969 BA594 PEDONE-RICCARDI BISCEGLIE 36:56 1h17:05
    11 TM     4 2603 UVA Michele 1980 BA554 FREE RUNNERS MOLFETTA 37:51 1h17:42
    12 TM     5 2740 PIARULLI Giulio 1981 BA594 PEDONE-RICCARDI BISCEGLIE 37:51 1h17:47
    13 MM35     4 2738 MARCHITIELLO Giovanni 1975 BA594 PEDONE-RICCARDI BISCEGLIE 37:13 1h17:52
    14 TM     6 2733 ZACCHEO Antonio 1980 BA592 BARLETTA SPORTIVA 37:15 1h18:02
    15 MM45     1 2955 MINOIA Filomeno 1966 BR113 ATLETICA CASALINI 37:55 1h18:02
    16 MM40     3 1127 MONTEMURRO Cosimo 1970 TA446 A.S.D. MARATHON MASSAFRA 38:23 1h18:05
    17 ASM     3 1395 RIZZO Luciano I 1986 PZ034 CLUB ATLETICO LAURIA 37:53 1h18:28
    18 MM45     2 2349 BOVE Nicola 1963 BA082 ATLETICA TOMMASO ASSI TRANI 38:07 1h18:45
    19 TM     7 2736 DELL'ISOLA Andrea 1980 BA594 PEDONE-RICCARDI BISCEGLIE 38:06 1h18:45
    20 MM45     3 1480 VESTITA Michele 1964 TA426 NUOVA ATLETICA LATERZA 38:07 1h18:50
    21 MM50     1 2655 LEONE Francesco 1960 BA586 A.S.D. ASOPICO RUNNING BARI 38:02 1h18:53
    22 ASM     4 2114 DITRANI Claudio I 1990 BA005 AMATORI ATL. ACQUAVIVA 38:01 1h19:13
    23 MM40     4 1243 SCARCELLA Vito 1968 BR144 ATALAS SAN VITO DEI NORMANNI 38:23 1h19:15
    24 MM50     2 1261 BRUNO Giuseppe 1961 CZ009 LIBERTAS ATL.LAMEZIA 38:23 1h19:22
    25 MM40     5 1220 LESTINGI Alessandro 1971 BR142 A.P.D. A.S. MICHELE SALENTINO 38:24 1h19:52
    26 MM55     1 1316 GALLO Michele 1953 FM020 A.POD. VALTENNA 38:25 1h20:01
    27 MM35     5 2539 RIEFOLO Michele 1974 BA544 ATLETICA DISFIDA DI BARLETTA 38:07 1h20:14
    28 MM40     6 2163 COLETTA Giuseppe 1970 BA025 A.S. AMATORI PUTIGNANO 38:46 1h20:26
    29 MM35     6 2730 TERMITE Massimo 1977 BA592 BARLETTA SPORTIVA 38:15 1h20:29
    30 MM35     7 1255 POMARICO Cosimo 1976 BR150 G.S.C. ORIABIKE 38:39 1h20:30
    31 MM35     8 2449 LOCONTE Riccardo 1977 BA507 A.MARATONETI ANDRIESI 39:14 1h20:47
    32 MM45     4 2348 ANGARANO Saverio 1966 BA082 ATLETICA TOMMASO ASSI TRANI 39:14 1h20:49
    33 MM35     9 1431 IACOBINO Salvatore 1976 TA423 CLUB RUNNER 87 VALENTE ARREDI 39:13 1h20:51
    34 MM35    10 1460 IANTORNI Salvatore 1974 TA425 ASD POD. FAGGIANO V.P. SERVICE 39:03 1h20:52
    35 ASM     5 1285 MARINI Francesco I 1991 FG264 A.S. CULTURALE POD. S. STEFANO 37:15 1h20:54
    36 TM     8 2843 MINENNA Antongiulio 1985 BA705 BITONTO RUNNERS 38:41 1h20:58
    37 MM35    11 2320 NOTARANGELO Donato 1975 BA058 ATLETICA  MONOPOLI 39:13 1h21:03
    38 MM40     7 2202 TRIA Ivan 1972 BA025 A.S. AMATORI PUTIGNANO 38:46 1h21:13
    39 MM45     5 2529 DECILLIS Potito 1964 BA544 ATLETICA DISFIDA DI BARLETTA 38:11 1h21:14
    40 TM     9 2770 CALO' Marco 1989 BA599 RUNNING PEOPLE NOICATTARO 37:26 1h21:15
    41 MM45     6 2456 ZAGARIA Nino 1967 BA507 A.MARATONETI ANDRIESI 39:06 1h21:39
    42 MM35    12 2127 CAMPOBASSO Vito 1974 BA008 A.S.D.ATL. TRIGGIANO PUGLIA 39:22 1h21:45
    43 MM40     8 1388 LAPERGOLA Antonio Stefa 1969 MT564 LUCANI FREE RUNNERS 39:40 1h21:53
    44 MM35    13 1472 PIGNATELLI Francesco 1975 TA425 ASD POD. FAGGIANO V.P. SERVICE 39:53 1h21:58
    45 MM50     3 2804 LIUZZI Leonardo 1961 BA700 A.S.D. NADIR ON THE ROAD - PUT 38:54 1h22:01
    46 MM40     9 1470 PAGLIARA Antonio 1972 TA425 ASD POD. FAGGIANO V.P. SERVICE 39:54 1h22:07
    47 MM45     7 2311 GUGLIELMI Nicolo' 1967 BA058 ATLETICA  MONOPOLI 39:16 1h22:14
    48 MM45     8 1268 RAGUSA Massimo 1966 CZ009 LIBERTAS ATL.LAMEZIA 38:46 1h22:18
    49 MM40    10 2179 INTINI Vito 1968 BA025 A.S. AMATORI PUTIGNANO 39:38 1h22:21
    50 MM40    11 2549 GRANATA Giuseppe 1970 BA546 POD. VALLE D'ITRIA LOCOROTONDO 39:16 1h22:24
    51 MM35    14 2397 CURRI Vitantonio 1973 BA502 A.S.D. MONTEDORO NOCI 38:29 1h22:25
    52 MM45     9 2312 IACOVAZZI Francesco 1964 BA058 ATLETICA  MONOPOLI 39:38 1h22:25
    53 MM55     2 2437 SIFANNO Gaetano 1955 BA505 A.S. QUELLI DELLA PINETA 39:16 1h22:26
    54 MM40    12 2199 SPORTELLI Angelo 1971 BA025 A.S. AMATORI PUTIGNANO 39:37 1h22:28
    55 MM45    10 1259 BRANCATELLI Federico 1963 CZ009 LIBERTAS ATL.LAMEZIA 40:17 1h22:36
    56 MM40    13 1124 MANIGRASSI Cosimo 1969 TA446 A.S.D. MARATHON MASSAFRA 39:12 1h22:39
    57 MM45    11 2220 GAZZILLI Carlo 1964 BA029 A.A.'E. MANZARI' CASAMASSIMA 38:55 1h22:42
    58 MM35    15 2894 DANZA Michele 1975 BA713 GIOIA RUNNING A.S.D. 40:32 1h22:50
    59 TM    10 2565 LORUSSO Michele 1982 BA550 AVIS IN CORSA CONVERSANO 40:25 1h22:59
    60 MM35    16 1315 PESCHECHERA Francesco 1977 FG285 ATLETICA TRINITAPOLI 40:16 1h23:10
    61 MM40    14 2172 DEROBERTIS Giovanni 1968 BA025 A.S. AMATORI PUTIGNANO 39:37 1h23:15
    62 MM45    12 2276 LENOCI Giuseppe 1967 BA049 G.S.P. III REGIONE AEREA BARI 39:25 1h23:16
    63 MM50     4 2453 PAPARUSSO Michele 1960 BA507 A.MARATONETI ANDRIESI 39:38 1h23:17
    64 MM40    15 2509 BRUNO Riccardo 1971 BA538 ATLETI  VALLE DELL'OFANTO 39:38 1h23:18
    65 MM35    17 1393 LAPENTA Vincenzo 1977 PZ034 CLUB ATLETICO LAURIA 41:04 1h23:43
    66 MM35    18 1179 PASSARELLI Felice 1975 TA459 TOP RUNNERS LATERZA 39:14 1h23:43
    67 MM45    13 1433 LUDOVICO Giuseppe 1963 TA423 CLUB RUNNER 87 VALENTE ARREDI 39:54 1h23:43
    68 MM50     5 1264 ISABELLA Carlo Luigi 1959 CZ009 LIBERTAS ATL.LAMEZIA 40:17 1h23:47
    69 MM45    14 2963 VITALE Pietro 1966 BR131 A.S. ATLETICA LATIANO 41:28 1h23:59
    70 TM    11 2851 VOLPE Luigi 1987 BA705 BITONTO RUNNERS 40:19 1h24:00
    71 MM35    19 2750 CANNONE Luca 1975 BA596 A.S.D. ANDRIA RUNS 38:25 1h24:01
    72 MM40    16 1207 NOCENTE Cosimo 1969 BR138 A.S. TEAM FRANCAVILLA 41:00 1h24:03
    73 TM    12 2960 CERVELLERA Davide 1988 BR131 A.S. ATLETICA LATIANO 41:10 1h24:04
    74 MM35    20 1146 LEVA Marco 1973 TA450 GRUPPO MARATHON MARTINA FRANCA 41:01 1h24:05
    75 MM50     6 2229 AFFUSO Rocco Alfredo 1961 BA039 A.S.D. AMICI STRADA DEL TESORO 39:08 1h24:07
    76 TF     1 1330 BERNARDO Paola 1981 LE349 ATL. AMATORI CORIGLIANO 41:03 1h24:09
    77 MM35    21 2803 LIUZZI Domenico 1973 BA700 A.S.D. NADIR ON THE ROAD - PUT 40:10 1h24:10
    78 MM35 22 2368 LATERZA Francesco 1975 BA093 ATLETIC CLUB ALTAMURA 38:48 1h24:13
    79 MM40    17 2378 PANEBIANCO Adriano 1969 BA097 SPORT CENTER A.S.D. 45:36 1h24:15
    80 MM35 23 2777 MELE Antonio 1974 BA599 RUNNING PEOPLE NOICATTARO 40:19 1h24:38
    81 MM45    15 2360 PALUMBO Sergio 1967 BA082 ATLETICA TOMMASO ASSI TRANI 39:13 1h24:38
    82 MM40    18 2745 UVA Francesco 1971 BA594 PEDONE-RICCARDI BISCEGLIE 41:27 1h24:41
    83 MM40    19 2997 GIOIA Giuseppe 1969 BR138 A.S. TEAM FRANCAVILLA 41:00 1h24:45
    84 MM50     7 2356 INTRONA Attilio 1962 BA082 ATLETICA TOMMASO ASSI TRANI 40:54 1h24:46
    85 TM    13 1116 CHIARELLI Daniele 1982 TA445 A.S.D.  PODISTICA TALSANO 40:59 1h24:46
    86 TM    14 2440 ATTIMONELLI Giuseppe 1978 BA507 A.MARATONETI ANDRIESI 40:26 1h24:46
    87 MM40    20 2834 COLAMOREA Francesco 1972 BA705 BITONTO RUNNERS 40:21 1h24:47
    88 MM45    16 2219 DE LEONARDIS Nicola 1967 BA029 A.A.'E. MANZARI' CASAMASSIMA 41:00 1h24:49
    89 MM35 24 2376 MARIANI Francesco 1973 BA097 SPORT CENTER A.S.D. 40:17 1h24:49
    90 TM    15 2537 PAPARELLA Giuseppe 1983 BA544 ATLETICA DISFIDA DI BARLETTA 41:00 1h24:50
    91 TM    16 2395 CALICCHIO Silvano 1978 BA502 A.S.D. MONTEDORO NOCI 40:59 1h24:55
    92 MM40    21 2222 MAGNIFICO Raffaele 1968 BA029 A.A.'E. MANZARI' CASAMASSIMA 40:16 1h24:59
    93 MM45    17 2269 BAGNULO Luigi 1964 BA049 G.S.P. III REGIONE AEREA BARI 40:20 1h25:01
    94 MM50     8 2845 MORETTI Domenico 1962 BA705 BITONTO RUNNERS 41:21 1h25:06
    95 MM35 25 1263 FLORO Romildo 1973 CZ009 LIBERTAS ATL.LAMEZIA 41:49 1h25:06
    96 MM40    22 2331 DE BARTOLO Paolo 1969 BA062 A.S. KANKUDAI 42:00 1h25:08
    97 TM    17 2599 MINERVINI Giuseppe 1981 BA554 FREE RUNNERS MOLFETTA 41:49 1h25:10
    98 MM50     9 2548 GIANFRATE Gianni 1962 BA546 POD. VALLE D'ITRIA LOCOROTONDO 40:16 1h25:11
    99 MM35 26 2424 VASCA Gaetano 1974 BA502 A.S.D. MONTEDORO NOCI 40:59 1h25:17
    100 MM50    10 1314 NANULA Savino 1958 FG285 ATLETICA TRINITAPOLI 40:56 1h25:23
    101 MM35 27 1309 CIPRO Michele 1973 FG285 ATLETICA TRINITAPOLI 40:38 1h25:24
    102 ASF     1 2268 GIUSTINO Viola I 1986 BA047 NUOVA ATL. FEMM. ACQUAVIVA 41:00 1h25:26
    103 MM35 28 2528 CAVALIERE Antonio 1973 BA544 ATLETICA DISFIDA DI BARLETTA 40:23 1h25:48
    104 NTF     1 1353 GENCO Giambattista 1959 LIB01 LIBERI 41:41 1h25:50
    105 MM35 29 2879 LOMBARDO Marino 1973 BA711 BIO AMBRA NEW AGE 41:11 1h25:51
    106 ASM     6 2942 DE CHIRICO Pasquale I 1992 BA716 FREE RUNNERS TERLIZZI 40:36 1h26:01
    107 TM    18 2465 BIANCO Gianpiero 1989 BA521 A.S. DOF AMATORI TURI 41:44 1h26:01
    108 MM40    23 2690 DEFAZIO Massimiliano 1972 BA592 BARLETTA SPORTIVA 42:01 1h26:01
    109 MM55     3 1257 BERNARDI Giancarlo 1957 CZ009 LIBERTAS ATL.LAMEZIA 41:42 1h26:03
    110 MM40    24 2682 CASCELLA Vincenzo 1969 BA592 BARLETTA SPORTIVA 41:58 1h26:05
    111 ASM     7 1392 FITTIPALDI Cristiano I 1984 PZ034 CLUB ATLETICO LAURIA 42:25 1h26:06
    112 MM35 30 1224 ESPOSITO Daniele 1973 BR143 PODISTICA CAROVIGNO 42:25 1h26:06
    113 MM45    18 2245 ARSALE Vito 1967 BA043 G.S.ATLETICA AMATORI CORATO 40:21 1h26:07
    114 MM50    11 2407 LIUZZI Antonio 1960 BA502 A.S.D. MONTEDORO NOCI 42:24 1h26:09
    115 MM45    19 1238 VALENTE Francesco 1963 BR143 PODISTICA CAROVIGNO 42:24 1h26:12
    116 MM50    12 1313 MANGANO Cesare 1962 FG285 ATLETICA TRINITAPOLI 42:24 1h26:21
    117 MM50    13 2542 TUPPUTI Giuseppe 1959 BA544 ATLETICA DISFIDA DI BARLETTA 42:02 1h26:21
    118 MM45    20 1212 COFANO Antonio 1966 BR141 POLISPORT CICLO CLUB FASANO 41:46 1h26:23
    119 MM40    25 2910 SICILIANO Michele Aless 1972 BA713 GIOIA RUNNING A.S.D. 41:11 1h26:24
    120 MM35 31 2385 GIANNULLI Massimo 1975 BA099 POL. 'D. PIETRI' GRAVINA 42:21 1h26:25
    121 MM50    14 2121 BOTTALICO Cosimo 1958 BA007 CUS BARI 42:09 1h26:27
    122 MF35     1 2792 DELFINE Emma 1973 BA700 A.S.D. NADIR ON THE ROAD - PUT 42:24 1h26:30
    123 MM45    21 2797 GENTILE Germano 1967 BA700 A.S.D. NADIR ON THE ROAD - PUT 40:07 1h26:31
    124 MM35 32 1218 RUFFO Vincenzo 1974 BR141 POLISPORT CICLO CLUB FASANO 42:23 1h26:31
    125 MM45    22 1271 TUTINO Vincenzo 1967 CZ009 LIBERTAS ATL.LAMEZIA 42:25 1h26:32
    126 MM55     4 2240 BALDASSARRE Francesco 1957 BA041 ATLETICA PRO CANOSA 42:23 1h26:33
    127 MM55     5 2458 PAULICELLI Vincenzo 1956 BA509 POD. CANUSIUM 2004 42:01 1h26:35
    128 MM45    23 1328 VINCENTI Fernando 1964 LE307 S.S. A.V.I.S.  SPORT NOVOLI 41:06 1h26:37
    129 MM40    26 2538 PESCHECHERA Nicola 1971 BA544 ATLETICA DISFIDA DI BARLETTA 41:30 1h26:38
    130 MM45    24 2353 FERRANTE Nicola 1967 BA082 ATLETICA TOMMASO ASSI TRANI 40:17 1h26:45
    131 MM50    15 1120 ALBANESE Antonio 1961 TA446 A.S.D. MARATHON MASSAFRA 41:07 1h26:46
    132 MM40    27 2926 MARRA Rocco Antonio 1972 BA714 ALBEROBELLO RUNNING ASD 41:03 1h26:49
    133 TM    19 2151 TAURO Domenico 1984 BA011 A.S. ATLETICA CASTELLANA 41:41 1h26:51
    134 MM40    28 2359 LOSAPIO Domenico 1969 BA082 ATLETICA TOMMASO ASSI TRANI 42:10 1h27:17
    135 TM    20 2998 LAGHEZZA Oronzo 1978 BR138 A.S. TEAM FRANCAVILLA 41:49 1h27:20
    136 TM    21 2771 COLONNA Francesco  paol 1983 BA599 RUNNING PEOPLE NOICATTARO 42:35 1h27:24
    137 MM40    29 2551 PICCOLI Pasquale 1972 BA546 POD. VALLE D'ITRIA LOCOROTONDO 41:30 1h27:24
    138 MM35 33 1400 BOCCIA Antonio 1973 PZ053 PODISTICA AMATORI POTENZA 42:24 1h27:27
    139 MM45    25 2164 DALENA Domenico 1967 BA025 A.S. AMATORI PUTIGNANO 43:16 1h27:33
    140 ASF     2 1396 LO VAGLIO Rossana I 1976 PZ035 ATL. FEMMINILE SEDAS LAURIA 42:53 1h27:34
    141 TM    22 2408 MAGGIPINTO Donato 1986 BA502 A.S.D. MONTEDORO NOCI 42:41 1h27:37
    142 MM45    26 2996 GIOIA Isidoro 1967 BR138 A.S. TEAM FRANCAVILLA 42:52 1h27:40
    143 MM35 34 2420 SPROVIERO Carmelo Evari 1975 BA502 A.S.D. MONTEDORO NOCI 42:25 1h27:43
    144 MF35     2 1181 PISCHETOLA Rosalinda 1974 TA459 TOP RUNNERS LATERZA 42:34 1h27:45
    145 TM    23 2802 LIUZZI Pietro 1984 BA700 A.S.D. NADIR ON THE ROAD - PUT 43:17 1h27:46
    146 MM55     6 1432 INTINI Rocco 1954 TA423 CLUB RUNNER 87 VALENTE ARREDI 41:31 1h27:47
    147 MM35 35 1430 FUMARULO Rocco 1975 TA423 CLUB RUNNER 87 VALENTE ARREDI 41:04 1h27:49
    148 MM40    30 1152 SEMERARO Angelo 1969 TA450 GRUPPO MARATHON MARTINA FRANCA 42:59 1h27:50
    149 MM45    27 1140 CERVELLERA Francesco 1964 TA450 GRUPPO MARATHON MARTINA FRANCA 42:06 1h27:51
    150 MM40    31 1148 PULITO Giuseppe 1970 TA450 GRUPPO MARATHON MARTINA FRANCA 42:22 1h27:54
    151 MM45    28 2476 SODANO Onofrio 1965 BA525 CRAL AMIU BARI 42:58 1h27:57
    152 MM40    32 2503 MAIELLARO Vito 1969 BA535 A.S. ATLETICA POLIGNANO 42:51 1h28:00
    153 MM55     7 2980 OLIVA Giuseppe 1956 BR135 ATLETICA CITTA' BIANCA 42:14 1h28:02
    154 MM45    29 1495 FAVALE Filippo 1966 TA438 CRISPIANO MARATHON CLUB ONLUS 42:25 1h28:03
    155 MM50    16 2212 SARDARO Emanuele 1962 BA026 ATLETICA BARLETTA 42:24 1h28:04
    156 MM40    33 1214 GRASSI Pietro 1971 BR141 POLISPORT CICLO CLUB FASANO 42:24 1h28:04
    157 MM50    17 2495 SERVIDIO Francesco 1961 BA531 A.S.D. SAN NICOLA RUNNERS 41:43 1h28:08
    158 MM50    18 2912 ADDANTE Nicola 1961 BA714 ALBEROBELLO RUNNING ASD 42:44 1h28:12
    159 MM45    30 2888 ANGELILLO Donato 1965 BA713 GIOIA RUNNING A.S.D. 42:24 1h28:17
    160 MM65     1 2375 D'AMBRUOSO Michele 1946 BA097 SPORT CENTER A.S.D. 42:03 1h28:20
    161 MF35     3 1426 RUSSO Marisa 1977 TA415 A.S.AMATORI PODISTICA MASSAFRA 42:24 1h28:23
    162 TM    24 2414 PORTESANI Fabio 1979 BA502 A.S.D. MONTEDORO NOCI 41:06 1h28:37
    163 MM50    19 2402 FUSILLO Antonio 1959 BA502 A.S.D. MONTEDORO NOCI 41:30 1h28:46
    164 MM40    34 2986 SUMMA Sandro 1972 BR135 ATLETICA CITTA' BIANCA 43:29 1h28:53
    165 TM    25 1387 DI CERA Francesco 1987 MT564 LUCANI FREE RUNNERS 42:59 1h28:57
    166 MM40    35 2850 VITALI Andrea 1969 BA705 BITONTO RUNNERS 42:58 1h29:00
    167 MM40    36 2536 MONTEREALE Salvatore 1968 BA544 ATLETICA DISFIDA DI BARLETTA 42:59 1h29:01
    168 MF40     1 1452 CARRINO Maddalena 1971 TA425 ASD POD. FAGGIANO V.P. SERVICE 42:46 1h29:03
    169 MM50    20 2361 PALUMBO Vincenzo 1959 BA082 ATLETICA TOMMASO ASSI TRANI 42:42 1h29:11
    170 MM40    37 1187 MATICHECCHIA Giovanni 1970 TA461 A.S.D PODISTICA CAROSINO 43:27 1h29:12
    171 MM50    21 2309 GALLIZIA Paolo 1960 BA058 ATLETICA  MONOPOLI 42:42 1h29:17
    172 MF40     2 2841 LISI Maria Antonia 1972 BA705 BITONTO RUNNERS 42:58 1h29:19
    173 MM50    22 2849 TULLO Giovanni 1962 BA705 BITONTO RUNNERS 42:58 1h29:20
    174 MM40    38 2868 ANTELMI Ivano 1972 BA711 BIO AMBRA NEW AGE 44:27 1h29:22
    175 MM50    23 1454 CROCICCHIO Gianfranco 1960 TA425 ASD POD. FAGGIANO V.P. SERVICE 44:28 1h29:25
    176 MM40    39 2801 LATTARULO Biagio 1971 BA700 A.S.D. NADIR ON THE ROAD - PUT 43:17 1h29:26
    177 MM45    31 2847 ROMANO Giampiero 1964 BA705 BITONTO RUNNERS 44:21 1h29:27
    178 MM50    24 2559 GENEROSO Domenico 1959 BA550 AVIS IN CORSA CONVERSANO 42:40 1h29:28
    179 MM40    40 1230 LANZILOTTI Antonio 1969 BR143 PODISTICA CAROVIGNO 44:32 1h29:29
    180 MM40    41 2534 GHIZZOTA Ruggiero 1970 BA544 ATLETICA DISFIDA DI BARLETTA 42:30 1h29:31
    181 MM45    32 2788 DAPRILE Vito Mauro 1964 BA700 A.S.D. NADIR ON THE ROAD - PUT 44:15 1h29:32
    182 MM45    33 2119 SELVAGGI Angelo Raffael 1963 BA005 AMATORI ATL. ACQUAVIVA 43:29 1h29:33
    183 MM40    42 1292 ZIRO Salvatore 1970 FG264 A.S. CULTURALE POD. S. STEFANO 43:29 1h29:37
    184 ASM     8 2300 BARLETTA Domenico I 1992 BA058 ATLETICA  MONOPOLI 43:51 1h29:37
    185 MM35 36 2990 TRIARICO Paolo 1974 BR135 ATLETICA CITTA' BIANCA 44:26 1h29:37
    186 MM40    43 2540 SCIUSCO Francesco 1972 BA544 ATLETICA DISFIDA DI BARLETTA 43:50 1h29:38
    187 MM35 37 1106 NOTARNICOLA Francesco 1977 TA440 ATHLETIC TEAM PALAGIANO 43:51 1h29:38
    188 MM60     1 2393 ATTOLICO Giuseppe 1951 BA502 A.S.D. MONTEDORO NOCI 43:29 1h29:39
    189 MM50    25 2734 BELLINO Luigi 1961 BA594 PEDONE-RICCARDI BISCEGLIE 42:28 1h29:40
    190 MM50    26 2148 SPERTI Ernesto 1960 BA011 A.S. ATLETICA CASTELLANA 43:18 1h29:40
    191 MM60     2 2307 D'ARIENZO Armando 1952 BA058 ATLETICA  MONOPOLI 43:13 1h29:41
    192 MM45    34 2263 PROCACCI Cataldo 1965 BA043 G.S.ATLETICA AMATORI CORATO 44:04 1h29:45
    193 MM35 38 1248 COFANO Giuseppe 1976 BR146 A.S.D. ATLETICA PEZZE DI GRECO 44:32 1h29:46
    194 MM60     3 2692 DI GIULIO Cosimo 1952 BA592 BARLETTA SPORTIVA 42:32 1h29:47
    195 TM    26 1186 CASTELLI Marco 1988 TA461 A.S.D PODISTICA CAROSINO 44:08 1h29:48
    196 TM    27 2965 ARGENTIERO Stefano 1978 BR135 ATLETICA CITTA' BIANCA 44:26 1h29:48
    197 MM35 39 1409 DI FAZIO Michele 1974 PZ555 PODISTICA HERMES LAVELLO 43:39 1h29:50
    198 MM40    45 2590 CALO' Andrea Giuseppe 1970 BA554 FREE RUNNERS MOLFETTA 44:23 1h29:51
    199 MM50    27 2248 CASTRIGNO Savino 1959 BA043 G.S.ATLETICA AMATORI CORATO 43:15 1h29:51
    200 MM40    46 2886 BRUNO Giacomo 1968 BA712 RUNNING TEAM ALTAMURA 44:17 1h29:52
    201 MM55     8 2732 TRIZIO Donato 1955 BA592 BARLETTA SPORTIVA 43:57 1h29:55
    202 MM40    47 2953 LAPADULA Aurelio 1968 BR113 ATLETICA CASALINI 43:33 1h30:09
    203 MM45    35 2799 INTINI Gianfranco 1967 BA700 A.S.D. NADIR ON THE ROAD - PUT 43:09 1h30:10
    204 TM    28 2493 SABATO Fabio 1982 BA531 A.S.D. SAN NICOLA RUNNERS 43:17 1h30:11
    205 MM35 40 2487 ARDITO Francesco 1975 BA531 A.S.D. SAN NICOLA RUNNERS 44:22 1h30:12
    206 MM45    36 1334 RIZZATO Cosimo 1965 LE601 A.S. ACTION RUNNING MONTERONI 42:27 1h30:13
    207 MM35 41 2221 LONGO Angelo 1974 BA029 A.A.'E. MANZARI' CASAMASSIMA 42:23 1h30:16
    208 TM    29 2426 ABBRESCIA Matteo 1982 BA505 A.S. QUELLI DELLA PINETA 41:08 1h30:32
    209 MM45    37 2444 CAVALIERE Eustachio 1965 BA507 A.MARATONETI ANDRIESI 42:40 1h30:33
    210 MM45    38 1291 ZIRO Giuseppe 1965 FG264 A.S. CULTURALE POD. S. STEFANO 43:01 1h30:33
    211 MM45    39 2505 NAPOLITANO Tommaso 1963 BA535 A.S. ATLETICA POLIGNANO 42:59 1h30:38
    212 MM40    48 1190 SARCINA Claudio 1968 BA581 A.S.D. ATLETICA BITRITTO 42:31 1h30:42
    213 MM35 42 1451 CANNALIRE Daniele 1974 TA425 ASD POD. FAGGIANO V.P. SERVICE 44:31 1h30:45
    214 TM    30 2228 ZACCHEO Antonio 1989 BA029 A.A.'E. MANZARI' CASAMASSIMA 43:43 1h30:51
    215 MM60     4 2153 VIVIAN Walter 1950 BA011 A.S. ATLETICA CASTELLANA 43:19 1h30:52
    216 MM35 43 2902 PANTALEO Alberto 1975 BA713 GIOIA RUNNING A.S.D. 42:49 1h30:53
    217 TM    31 2811 TINELLI Mariano 1984 BA700 A.S.D. NADIR ON THE ROAD - PUT 43:17 1h30:54
    218 TM    32 2587 ANGELINI Pasquale 1979 BA554 FREE RUNNERS MOLFETTA 45:34 1h30:55
    219 MM45    40 2251 COLUCCI Mario 1964 BA043 G.S.ATLETICA AMATORI CORATO 45:44 1h31:02
    220 MM40    49 2325 TODISCO Vincenzo 1968 BA058 ATLETICA  MONOPOLI 45:01 1h31:03
    221 MM45    41 2125 PASCAZIO Alessandro 1964 BA007 CUS BARI 45:31 1h31:04
    222 MM40    50 1208 BUCCOLIERI Angelo 1968 BR139 GYMNASIUM S. PANCRAZIO 45:32 1h31:05
    223 TM    33 2695 DIBENEDETTO Bartolomeo 1984 BA592 BARLETTA SPORTIVA 45:07 1h31:06
    224 MM40    51 1274 DIGENNARO Giuseppe 1969 FG257 G.S. ATL. SAN FERDINANDO 46:00 1h31:13
    225 MM45    42 2992 VALENTE Francesco 1963 BR135 ATLETICA CITTA' BIANCA 44:27 1h31:14
    226 MM40    52 2174 ELEFANTE Pasquale 1968 BA025 A.S. AMATORI PUTIGNANO 55:37 1h31:15
    227 MM50    28 1265 LAGANA' Alberto 1958 CZ009 LIBERTAS ATL.LAMEZIA 44:42 1h31:16
    228 NTF     2 1366 PICCARRETA Roberto 1972 LIB01 LIBERI 44:53 1h31:17
    229 MM45    43 2666 CAPUTO Gino 1967 BA587 LA PIETRA 45:12 1h31:20
    230 MM55     9 2274 CONVERTINI Pietro 1956 BA049 G.S.P. III REGIONE AEREA BARI 44:22 1h31:21
    231 MM45    44 1333 PUSCIO Giovanni 1965 LE601 A.S. ACTION RUNNING MONTERONI 43:59 1h31:23
    232 MM55    10 2592 DE GIOIA Giuseppe Anton 1954 BA554 FREE RUNNERS MOLFETTA 44:22 1h31:24
    233 MM45    45 1242 PIGNATELLI Carlo 1965 BR144 ATALAS SAN VITO DEI NORMANNI 45:02 1h31:26
    234 MM40    53 2454 RAGNO Dante 1970 BA507 A.MARATONETI ANDRIESI 43:58 1h31:28
    235 MM35 44 2425 VICENTI Domenico 1973 BA502 A.S.D. MONTEDORO NOCI 45:01 1h31:30
    236 MM35 45 1166 PINO Francesco Paolo 1977 TA451 A.S.D. ATLETICA DON MILANI 45:28 1h31:31
    237 TM    34 2693 DI MATTEO Adriano 1978 BA592 BARLETTA SPORTIVA 45:12 1h31:32
    238 TM    35 2938 SOVERETO Sergio Cosimo 1981 BA714 ALBEROBELLO RUNNING ASD 45:38 1h31:40
    239 MM40    54 2411 NANNI Antonio 1968 BA502 A.S.D. MONTEDORO NOCI 45:01 1h31:42
    240 MM40    55 2227 VITULLI Carlo 1969 BA029 A.A.'E. MANZARI' CASAMASSIMA 45:49 1h31:43
    241 MM45    46 2117 PETRELLI Vincenzo 1964 BA005 AMATORI ATL. ACQUAVIVA 45:49 1h31:50
    242 MM40    56 2129 CARELLA Giuseppe 1971 BA011 A.S. ATLETICA CASTELLANA 42:46 1h31:51
    243 MM40    57 2423 TURI Cristian 1971 BA502 A.S.D. MONTEDORO NOCI 45:02 1h31:59
    244 MM40    58 2991 TRIARICO Angelo 1970 BR135 ATLETICA CITTA' BIANCA 44:27 1h32:11
    245 MM60     5 2413 PACE Luigi Guglielmo 1949 BA502 A.S.D. MONTEDORO NOCI 43:45 1h32:12
    246 NTF     3 1350 DI NUNZIO  Giuseppe 1974 LIB01 LIBERI 45:52 1h32:17
    247 TM    36 2204 ZACCARIA Lorenzo 1978 BA025 A.S. AMATORI PUTIGNANO 46:37 1h32:20
    248 MM35 46 2920 GENTILE Vito 1976 BA714 ALBEROBELLO RUNNING ASD 46:38 1h32:36
    249 MM45    47 2966 BELLANOVA Paolo 1966 BR135 ATLETICA CITTA' BIANCA 44:49 1h32:37
    250 MM35 47 2742 SIMONE Maurizio 1977 BA594 PEDONE-RICCARDI BISCEGLIE 44:57 1h32:38
    251 TM    37 2482 DI BARI Roberto 1981 BA529 A.S. TRANI MARATHON 44:36 1h32:39
    252 MM45    48 1464 LOMBARDI Francesco 1964 TA425 ASD POD. FAGGIANO V.P. SERVICE 44:03 1h32:40
    253 MM65     2 1300 FILANNINO Pasquale 1947 FG284 MARGHERITA DI SAVOIA RUNNERS 43:34 1h32:44
    254 MM45    49 1231 LANZILOTTI Fedele 1967 BR143 PODISTICA CAROVIGNO 44:36 1h32:45
    255 MM35 48 2544 VIGNOLA Pietro 1973 BA544 ATLETICA DISFIDA DI BARLETTA 44:37 1h32:46
    256 MM45    50 2741 PICCININNO Antonio 1965 BA594 PEDONE-RICCARDI BISCEGLIE 44:03 1h32:47
    257 TM    38 2195 PARCHITELLI Claudio 1980 BA025 A.S. AMATORI PUTIGNANO 46:38 1h32:48
    258 MM60     6 2457 FILETTO Cosimo Damiano 1952 BA509 POD. CANUSIUM 2004 45:02 1h32:50
    259 MM55    11 2622 COCOLO Giorgio 1956 BA581 A.S.D. ATLETICA BITRITTO 43:05 1h32:51
    260 MM40    59 1306 RUBINI Roberto Ruggiero 1971 FG284 MARGHERITA DI SAVOIA RUNNERS 43:59 1h32:51
    261 MM40    60 2525 BASILE Giuseppe 1968 BA544 ATLETICA DISFIDA DI BARLETTA 45:01 1h32:52
    262 MM40    61 2967 BRESCIA Angelo 1971 BR135 ATLETICA CITTA' BIANCA 43:41 1h32:54
    263 MM45    51 2571 NARDOMARINO Angelo 1967 BA550 AVIS IN CORSA CONVERSANO 46:09 1h32:57
    264 TM    39 2223 MERCEDES Giuseppe 1981 BA029 A.A.'E. MANZARI' CASAMASSIMA 46:00 1h32:58
    265 TM    40 2918 FATO Vito 1979 BA714 ALBEROBELLO RUNNING ASD 46:38 1h32:59
    266 MM65     3 2859 PERAGINE Antonio 1947 BA708 CARINGELLA SANNICANDRO DI BARI 45:48 1h33:00
    267 MM40    62 1496 DE CARLO Angelo 1968 TA440 ATHLETIC TEAM PALAGIANO 44:24 1h33:12
    268 MM40    63 1390 PUGLIESE Nicola 1972 MT564 LUCANI FREE RUNNERS 46:11 1h33:17
    269 TM    41 2588 ANGELINI Fabio 1979 BA554 FREE RUNNERS MOLFETTA 45:34 1h33:18
    270 MM45    52 2328 BITETTO Giacomo 1963 BA062 A.S. KANKUDAI 45:31 1h33:20
    271 MM40    64 2558 FANELLI Francesco Paolo 1969 BA550 AVIS IN CORSA CONVERSANO 46:09 1h33:20
    272 NTF     4 1351 GALENTINO Francesco 1965 LIB01 LIBERI 43:00 1h33:21
    273 MM35 49 1157 COLACICCHIO Giovanni 1975 TA451 A.S.D. ATLETICA DON MILANI 44:24 1h33:24
    274 MM40    65 2550 MARANGI GRASSI Giuseppe 1971 BA546 POD. VALLE D'ITRIA LOCOROTONDO 43:00 1h33:25
    275 MM40    66 2261 PIARULLI Felice 1970 BA043 G.S.ATLETICA AMATORI CORATO 43:59 1h33:29
    276 MM50    29 2273 CISTERNINO Marco 1958 BA049 G.S.P. III REGIONE AEREA BARI 42:54 1h33:30
    277 MM45    53 2546 D'ABBICCO Donato 1963 BA546 POD. VALLE D'ITRIA LOCOROTONDO 45:03 1h33:30
    278 TF     2 2962 DE LUCA Alessandra 1978 BR131 A.S. ATLETICA LATIANO 45:36 1h33:31
    279 MM45    54 1143 GENTILE Matteo 1965 TA450 GRUPPO MARATHON MARTINA FRANCA 45:36 1h33:32
    280 MM40    67 2982 ROMA Nicola 1970 BR135 ATLETICA CITTA' BIANCA 44:59 1h33:35
    281 TM    42 2418 SCIATTA Angelo 1981 BA502 A.S.D. MONTEDORO NOCI 45:03 1h33:44
    282 MM45    55 2118 PONTRANDOLFO Pietro 1966 BA005 AMATORI ATL. ACQUAVIVA 42:47 1h33:45
    283 MM60     7 2494 SANTORO Gennaro 1951 BA531 A.S.D. SAN NICOLA RUNNERS 45:01 1h33:55
    284 MM55    12 2167 DE LUCA Pasquale 1957 BA025 A.S. AMATORI PUTIGNANO 45:36 1h33:56
    285 MM35 50 2193 NOVEMBRE Luigi 1975 BA025 A.S. AMATORI PUTIGNANO 45:14 1h33:57
    286 MM45    56 1288 RUSSO Savino 1964 FG264 A.S. CULTURALE POD. S. STEFANO 44:31 1h33:58
    287 MM40    68 2976 LACORTE Leonardo 1969 BR135 ATLETICA CITTA' BIANCA 45:32 1h34:00
    288 MM35 51 1442 RIZZO Salvatore 1973 TA424 CORRERE E' SALUTE MOTTOLA 46:03 1h34:05
    289 MM50    30 2696 DICOLANGELO Ettore 1961 BA592 BARLETTA SPORTIVA 46:11 1h34:07
    290 MM40    69 1164 MASTRANGELO Luigi 1971 TA451 A.S.D. ATLETICA DON MILANI 45:21 1h34:13
    291 MM40    70 2825 TRAGNI Mario 1970 BA703 HAPPY RUNNERS ALTAMURA 47:47 1h34:15
    292 MM35 52 2930 PUGLIESE Sergio 1975 BA714 ALBEROBELLO RUNNING ASD 45:38 1h34:17
    293 ASF     3 1398 MARTINO Maria Rosaria I 1984 PZ035 ATL. FEMMINILE SEDAS LAURIA 46:44 1h34:20
    294 ASF     4 2154 FALCO Agnese I 1978 BA015 A.S. OLIMPIA CLUB 45:38 1h34:21
    295 MM45    57 2403 INTINI Domenico 1965 BA502 A.S.D. MONTEDORO NOCI 46:44 1h34:22
    296 MM45    58 1240 ZITO Pasquale 1964 BR143 PODISTICA CAROVIGNO 46:16 1h34:24
    297 MM35 53 2448 GUGLIELMI Saverio 1977 BA507 A.MARATONETI ANDRIESI 44:56 1h34:24
    298 MM50    31 2573 PACE Angelo 1962 BA550 AVIS IN CORSA CONVERSANO 47:16 1h34:25
    299 MM45    59 2579 VAVALLE Valter 1964 BA550 AVIS IN CORSA CONVERSANO 47:16 1h34:25
    300 MM40    71 2566 LORUSSO Vitantonio 1968 BA550 AVIS IN CORSA CONVERSANO 47:17 1h34:27
    301 MM35 54 1117 CHIARELLI Rosario 1976 TA445 A.S.D.  PODISTICA TALSANO 43:41 1h34:28
    302 MM50    32 2898 GIAMPETRUZZI Leonardo 1959 BA713 GIOIA RUNNING A.S.D. 46:41 1h34:28
    303 MM40    72 2891 BUTTIGLIONE Leonardo 1970 BA713 GIOIA RUNNING A.S.D. 46:40 1h34:28
    304 MM35 55 2336 LOPASSO Gianluca 1974 BA062 A.S. KANKUDAI 47:21 1h34:31
    305 MM60     8 2554 DANIELE Marino 1949 BA550 AVIS IN CORSA CONVERSANO 45:39 1h34:32
    306 MM45    60 2614 LEPORE Vito 1965 BA555 AVIS PODISTICA MOLA 46:10 1h34:33
    307 MM55    13 2321 PASSIATORE Franco 1954 BA058 ATLETICA  MONOPOLI 45:50 1h34:35
    308 MM45    61 1493 RICCI Domenico 1964 TA432 S.ATL. S.G.BOSCO  PALAGIANELLO 46:25 1h34:35
    309 MM50    33 2790 DARESTA Giuseppe 1962 BA700 A.S.D. NADIR ON THE ROAD - PUT 46:26 1h34:36
    310 MF45     1 2254 ELICIO Vittoria 1967 BA043 G.S.ATLETICA AMATORI CORATO 45:37 1h34:36
    311 MM50    34 2463 RANIERI Vito 1960 BA517 ASS. DILETTANTIST BARIMARATONA 46:15 1h34:39
    312 MM35 56 2911 TRITTO Teodoro 1974 BA713 GIOIA RUNNING A.S.D. 46:41 1h34:39
    313 MM40    73 2450 LOSAPPIO Francesco 1970 BA507 A.MARATONETI ANDRIESI 46:02 1h34:40
    314 MM40    74 1439 BOCCARDI Antonio 1969 TA424 CORRERE E' SALUTE MOTTOLA 46:03 1h34:44
    315 MM45    62 2490 PADOLECCHIA Luciano 1963 BA531 A.S.D. SAN NICOLA RUNNERS 44:10 1h34:45
    316 MM40    75 2620 AVANTARIO Giuseppe 1969 BA581 A.S.D. ATLETICA BITRITTO 46:28 1h34:51
    317 MM55    14 2526 CASCELLA Vito 1954 BA544 ATLETICA DISFIDA DI BARLETTA 45:13 1h34:52
    318 MM45    63 2264 QUATELA Nunzio 1965 BA043 G.S.ATLETICA AMATORI CORATO 45:50 1h34:53
    319 MM50    35 2205 DAMATO Michele 1959 BA026 ATLETICA BARLETTA 45:13 1h34:54
    320 MM40    76 2250 CESARANO Carmine 1972 BA043 G.S.ATLETICA AMATORI CORATO 44:10 1h34:55
    321 MM50    36 1391 STIGLIANO Francesco Pas 1961 MT564 LUCANI FREE RUNNERS 46:19 1h34:56
    322 TM    43 2216 CAMPANELLA Pasquale 1989 BA029 A.A.'E. MANZARI' CASAMASSIMA 46:02 1h35:00
    323 MM45    64 2475 MORETTI Giovanni 1965 BA525 CRAL AMIU BARI 45:01 1h35:02
    324 MM40    77 1153 SEMERARO Oronzo 1968 TA450 GRUPPO MARATHON MARTINA FRANCA 48:17 1h35:08
    325 MM50    37 2334 FERRANTE Nicola 1962 BA062 A.S. KANKUDAI 45:35 1h35:13
    326 MM45    65 2989 TANZARIELLO Antonio 1963 BR135 ATLETICA CITTA' BIANCA 46:28 1h35:14
    327 NTF     5 1367 PIEDILATO Simone 1973 LIB01 LIBERI 45:25 1h35:15
    328 MM35 57 1401 DE STEFANO Pietro 1974 PZ053 PODISTICA AMATORI POTENZA 45:25 1h35:16
    329 MM40    78 2924 GUARELLA Cristiano 1968 BA714 ALBEROBELLO RUNNING ASD 46:38 1h35:17
    330 MM60     9 1113 LACARBONARA Vitantonio 1951 TA441 G.S. PAOLOTTI - ATL MARTINA 45:06 1h35:18
    331 MM45    66 2553 CACCIOPPOLI Paolo Vince 1966 BA550 AVIS IN CORSA CONVERSANO 47:16 1h35:19
    332 MM40    79 1312 LANDRISCINA Gianfranco 1969 FG285 ATLETICA TRINITAPOLI 45:39 1h35:23
    333 MM40    80 1466 MARINO' Antonio 1968 TA425 ASD POD. FAGGIANO V.P. SERVICE 46:40 1h35:24
    334 MM50    38 2969 CAROLI Giacomo 1959 BR135 ATLETICA CITTA' BIANCA 44:56 1h35:40
    335 MM40    81 2181 LATERZA Mario 1971 BA025 A.S. AMATORI PUTIGNANO 44:43 1h35:43
    336 MM35 58 2552 BERARDI Roberto 1973 BA550 AVIS IN CORSA CONVERSANO 47:16 1h35:44
    337 MM40    82 1254 MENGA Mario 1972 BR150 G.S.C. ORIABIKE 46:33 1h35:45
    338 MM45    67 2322 PERRICCI Saverio 1965 BA058 ATLETICA  MONOPOLI 47:57 1h35:53
    339 MM45    68 2237 PAVESI Lorenzo 1964 BA039 A.S.D. AMICI STRADA DEL TESORO 45:24 1h35:54
    340 MM55    15 2435 RADICCHIO Biagio 1956 BA505 A.S. QUELLI DELLA PINETA 46:16 1h35:55
    341 MM60    10 2947 ROMANO Giuseppe Luigi 1951 BR109 TOP RUNNING  BRINDISI 45:24 1h36:00
    342 MM40    83 2441 BRUNO Luigi 1970 BA507 A.MARATONETI ANDRIESI 47:03 1h36:01
    343 MM50    39 2342 RUBINI Giuseppe 1960 BA062 A.S. KANKUDAI 45:36 1h36:02
    344 MM35 59 2484 MUCIACCIA Luigi 1977 BA529 A.S. TRANI MARATHON 47:48 1h36:03
    345 MM45    69 1434 PARABITA Casimiro 1965 TA423 CLUB RUNNER 87 VALENTE ARREDI 47:42 1h36:14
    346 MM45    70 1446 SIMONETTI Vito 1964 TA424 CORRERE E' SALUTE MOTTOLA 48:17 1h36:15
    347 MM40    84 2350 DABBICCO Fabrizio 1970 BA082 ATLETICA TOMMASO ASSI TRANI 46:11 1h36:16
    348 MM50    40 1233 LANZILOTTI Michele 1959 BR143 PODISTICA CAROVIGNO 46:12 1h36:17
    349 MM40    85 1236 SAPONARO Cosimo 1972 BR143 PODISTICA CAROVIGNO 45:34 1h36:18
    350 MM55    16 1115 SEMERARO Francesco 1953 TA441 G.S. PAOLOTTI - ATL MARTINA 46:41 1h36:19
    351 MM50    41 2141 LIPPOLIS Teodoro 1962 BA011 A.S. ATLETICA CASTELLANA 48:25 1h36:20
    352 MM40    86 2897 GIAMPETRUZZI Vincenzo 1968 BA713 GIOIA RUNNING A.S.D. 47:41 1h36:21
    353 MM40    87 1169 CALABRO' Salvatore 1972 TA456 TARANTO SPORTIVA 47:59 1h36:27
    354 MM40    88 2442 CAMPANALE Sergio Domeni 1970 BA507 A.MARATONETI ANDRIESI 45:41 1h36:28
    355 TM    44 2806 MASTRANGELO Lorenzo Dom 1986 BA700 A.S.D. NADIR ON THE ROAD - PUT 48:12 1h36:29
    356 MM55    18 2358 LETTINI Matteo 1954 BA082 ATLETICA TOMMASO ASSI TRANI 45:37 1h36:30
    357 ASF     5 2363 CORVASCE Emanuella I 1994 BA089 ALTERATLETICA LOCOROTONDO 45:37 1h36:31
    358 MM35 60 2531 DI VITTORIO Francesco 1976 BA544 ATLETICA DISFIDA DI BARLETTA 48:04 1h36:32
    359 MM35 61 2585 MAGARELLI Saverio 1974 BA553 ATLETICA ADELFIA 46:47 1h36:33
    360 TM    45 2961 CONTESTABILE Pierluigi 1982 BR131 A.S. ATLETICA LATIANO 47:11 1h36:34
    361 MM45    71 2887 CHIRONNA Evangelista 1966 BA712 RUNNING TEAM ALTAMURA 47:10 1h36:35
    362 TM    46 1427 ANTRESINI Luigi 1986 TA423 CLUB RUNNER 87 VALENTE ARREDI 47:45 1h36:53
    363 MM40    89 2871 BUONO Antonio 1969 BA711 BIO AMBRA NEW AGE 47:25 1h36:54
    364 MM35 62 1188 SENA Roberto 1973 TA461 A.S.D PODISTICA CAROSINO 47:27 1h36:55
    365 MM40    90 2570 MANCINI Luca 1969 BA550 AVIS IN CORSA CONVERSANO 47:16 1h36:56
    366 NTF     6 1342 ABBRESCIA  Luigi 1972 LIB01 LIBERI 45:34 1h36:57
    367 MM40    91 2271 BUCCI Michele 1971 BA049 G.S.P. III REGIONE AEREA BARI 46:55 1h36:58
    368 MM55    19 2147 PRIMAVERA Vito 1957 BA011 A.S. ATLETICA CASTELLANA 47:59 1h37:00
    369 MM45    72 2595 GAUDIANO Antonio 1966 BA554 FREE RUNNERS MOLFETTA 46:03 1h37:01
    370 ASF     6 1422 SONNANTE Fabiana I 1982 TA408 A.S POD.TARAS SHOPPING SPORT 46:04 1h37:02
    371 MM45    73 1440 ETTORRE Donato 1964 TA424 CORRERE E' SALUTE MOTTOLA 48:18 1h37:04
    372 TM    47 2855 MARZULLO Nicola 1980 BA707 DREAM TEAM BARI 50:04 1h37:05
    373 MM45    74 2612 DEMETRIO Pietro 1965 BA555 AVIS PODISTICA MOLA 47:02 1h37:05
    374 MM45    75 1170 DALESSANDRO Onofrio 1966 TA456 TARANTO SPORTIVA 47:03 1h37:07
    375 MM55    20 1132 SALVI Fernando 1954 TA446 A.S.D. MARATHON MASSAFRA 47:57 1h37:07
    376 MM55    21 2951 L'ABATE Pompeo 1956 BR113 ATLETICA CASALINI 46:28 1h37:11
    377 MM45    76 2473 LACALENDOLA Nicola 1967 BA525 CRAL AMIU BARI 42:46 1h37:12
    378 MM45    77 2379 PATRUNO Felice 1967 BA097 SPORT CENTER A.S.D. 45:33 1h37:13
    379 MM45    78 2171 DELL'AERA Pasquale 1963 BA025 A.S. AMATORI PUTIGNANO 48:21 1h37:14
    380 MM50    42 2615 PANSA Francesco 1959 BA555 AVIS PODISTICA MOLA 47:19 1h37:15
    381 MM35 63 2470 VALENTINI Domenico 1974 BA521 A.S. DOF AMATORI TURI 48:11 1h37:16
    382 MF40     3 2694 DIBENEDETTO Maria 1970 BA592 BARLETTA SPORTIVA 45:44 1h37:19
    383 MM45    79 1324 PALADINI Antonio 1967 LE307 S.S. A.V.I.S.  SPORT NOVOLI 46:18 1h37:21
    384 MM50    43 1331 NOCCO Tarcisio 1962 LE349 ATL. AMATORI CORIGLIANO 45:57 1h37:23
    385 MM45    80 2184 LENTINI Mario 1964 BA025 A.S. AMATORI PUTIGNANO 46:23 1h37:24
    386 MM60    11 1290 TRAVERSI Nicola 1949 FG264 A.S. CULTURALE POD. S. STEFANO 46:41 1h37:25
    387 MF50     1 2329 CEA Vincenza 1961 BA062 A.S. KANKUDAI 46:41 1h37:26
    388 MM50    44 1158 COLADONATO Francesco 1961 TA451 A.S.D. ATLETICA DON MILANI 47:14 1h37:27
    389 MM45    81 2279 SGURA Biagio 1967 BA049 G.S.P. III REGIONE AEREA BARI 46:40 1h37:28
    390 MM40    92 2469 LAERA Franco 1970 BA521 A.S. DOF AMATORI TURI 48:16 1h37:29
    391 MM40    93 2306 COLELLI Leonardo 1972 BA058 ATLETICA  MONOPOLI 50:01 1h37:38
    392 MM50    45 2284 CASSANO Vito 1961 BA052 BARI ROAD RUNNERS CLUB 48:28 1h37:39
    393 MM45    82 1137 BUONANUOVA Francesco 1965 TA450 GRUPPO MARATHON MARTINA FRANCA 48:09 1h37:39
    394 MM40    94 1147 MASSARO Domenico 1968 TA450 GRUPPO MARATHON MARTINA FRANCA 48:09 1h37:40
    395 MM45    83 1437 VENTIMIGLIA Carmelo 1965 TA423 CLUB RUNNER 87 VALENTE ARREDI 47:45 1h37:41
    396 MM45    84 1245 CAMPANELLA Antonio 1963 BR146 A.S.D. ATLETICA PEZZE DI GRECO 48:02 1h37:43
    397 MM50 46 2357 INTRONA Vincenczo 1960 BA082 ATLETICA TOMMASO ASSI TRANI 47:38 1h37:43
    398 MM40    95 1142 D'ARCANGELO Michele 1969 TA450 GRUPPO MARATHON MARTINA FRANCA 46:01 1h37:44
    399 MF40     4 1136 ANCONA Maria Rosaria 1969 TA450 GRUPPO MARATHON MARTINA FRANCA 46:25 1h37:44
    400 MM50 47 2833 CAZZORLA Sabino 1962 BA705 BITONTO RUNNERS 46:21 1h37:45
    401 MM50 48 2957 TERRACCIANO Maurizio 1961 BR113 ATLETICA CASALINI 46:22 1h37:46
    402 MM40    97 2499 DAMBRUOSO Marco 1972 BA535 A.S. ATLETICA POLIGNANO 48:10 1h37:48
    403 TM    82 2673 ANTONUCCI Nicola 1978 BA592 BARLETTA SPORTIVA 48:37 1h37:48
    404 MM45    86 2351 DE FEO Luigi 1967 BA082 ATLETICA TOMMASO ASSI TRANI 48:09 1h37:49
    405 MF45     2 2835 D'ADAMO Filomena 1967 BA705 BITONTO RUNNERS 47:39 1h37:50
    406 MM50 49 2194 NUDO Giuseppe 1961 BA025 A.S. AMATORI PUTIGNANO 49:13 1h37:51
    407 MM45    87 1126 MASTRONUZZI Girolamo 1964 TA446 A.S.D. MARATHON MASSAFRA 48:09 1h37:53
    408 MM60    13 1435 RUSSO Angelo 1952 TA423 CLUB RUNNER 87 VALENTE ARREDI 47:44 1h37:55
    409 MM40    98 1483 CARPIGNANO Angelo 1970 TA432 S.ATL. S.G.BOSCO  PALAGIANELLO 48:09 1h37:56
    410 MM55    22 2865 LEONE Pietro 1957 BA710 A.S.D. GRAVINA FESTINA LENTE! 47:29 1h37:57
    411 MM50 50 2133 CONSOLE Mauro 1962 BA011 A.S. ATLETICA CASTELLANA 48:27 1h37:58
    412 MM45    88 2438 TORTELLI Gianfranco 1965 BA505 A.S. QUELLI DELLA PINETA 46:28 1h38:00
    413 MM35 64 2433 LOCONSOLE Alfredo 1974 BA505 A.S. QUELLI DELLA PINETA 47:11 1h38:02
    414 MM45    89 2717 MONTECALVO Michelangelo 1964 BA592 BARLETTA SPORTIVA 47:44 1h38:05
    415 MM40    99 2282 CANTATORE Marco 1972 BA052 BARI ROAD RUNNERS CLUB 47:58 1h38:05
    416 MM45    90 2880 MANSI Antonio 1964 BA711 BIO AMBRA NEW AGE 48:21 1h38:05
    417 MF40     5 2249 CATERINA Benedetta 1968 BA043 G.S.ATLETICA AMATORI CORATO 48:12 1h38:09
    418 MM40   100 2652 CAPRIATI Michele 1968 BA586 A.S.D. ASOPICO RUNNING BARI 47:54 1h38:10
    419 MM35 65 2987 TALIENTE Massimo 1973 BR135 ATLETICA CITTA' BIANCA 46:42 1h38:11
    420 MM60    14 2949 CONVERTINI Donato 1952 BR113 ATLETICA CASALINI 46:24 1h38:19
    421 NTF     7 1355 GIOTTA Gianclaudio 1969 LIB01 LIBERI 47:42 1h38:19
    422 MF40     6 2217 CAPORUSSO Barbara 1972 BA029 A.A.'E. MANZARI' CASAMASSIMA 46:25 1h38:20
    423 TM    48 1410 D'ORIA Nicola 1978 RM069 PODISTICA SOLIDARIETA' 50:08 1h38:22
    424 MM50 51 1420 IANNUZZI Attilio 1959 TA408 A.S POD.TARAS SHOPPING SPORT 45:41 1h38:27
    425 MM50 52 2257 LOIODICE Franco 1958 BA043 G.S.ATLETICA AMATORI CORATO 47:34 1h38:28
    426 MM40   101 2812 VINELLA Pietro 1970 BA700 A.S.D. NADIR ON THE ROAD - PUT 49:11 1h38:29
    427 MM40   102 1163 MARRA Raffaele 1969 TA451 A.S.D. ATLETICA DON MILANI 48:32 1h38:31
    428 TM    49 1443 ROMANELLI Angelo 1986 TA424 CORRERE E' SALUTE MOTTOLA 48:43 1h38:31
    429 MM35 66 2793 DURSI Stefano 1975 BA700 A.S.D. NADIR ON THE ROAD - PUT 49:05 1h38:31
    430 MM50 53 2200 TOTARO Donato 1962 BA025 A.S. AMATORI PUTIGNANO 49:11 1h38:32
    431 MM40   103 2784 ADONE Carmine 1972 BA700 A.S.D. NADIR ON THE ROAD - PUT 49:12 1h38:33
    432 TM    50 2165 DALENA Domenico 1981 BA025 A.S. AMATORI PUTIGNANO 49:01 1h38:34
    433 MM40   104 2185 LOLIVA Nicola 1968 BA025 A.S. AMATORI PUTIGNANO 49:11 1h38:34
    434 MM45    91 2192 NETTI Francesco 1964 BA025 A.S. AMATORI PUTIGNANO 48:16 1h38:38
    435 MM40   105 1172 PETRUZZI Massimo 1972 TA456 TARANTO SPORTIVA 47:59 1h38:39
    436 MM55    23 2332 DE BENEDICTIS Antonio 1957 BA062 A.S. KANKUDAI 47:24 1h38:48
    437 MM50 54 2330 D'AGOSTINO Giuseppe 1962 BA062 A.S. KANKUDAI 47:59 1h38:48
    438 MM45    92 1213 GIANFRATE Lorenzo 1965 BR141 POLISPORT CICLO CLUB FASANO 48:27 1h38:52
    439 TM    51 1216 MANCINI Giacomo 1980 BR141 POLISPORT CICLO CLUB FASANO 48:40 1h38:53
    440 MM55    24 2231 COLANTUONO Pasquale 1953 BA039 A.S.D. AMICI STRADA DEL TESORO 47:59 1h38:57
    441 MM45    93 1161 GENTILE Giuseppe 1967 TA451 A.S.D. ATLETICA DON MILANI 46:26 1h39:04
    442 MF45     3 1182 COPPOLA Maria Teresa 1966 TA460 BODY ANGEL 46:27 1h39:05
    443 MM40   106 2705 GRANIERO Ruggiero 1971 BA592 BARLETTA SPORTIVA 48:37 1h39:06
    444 MF35     4 2723 PESCHECHERA Anna Maria 1976 BA592 BARLETTA SPORTIVA 46:27 1h39:07
    445 MM55    25 2701 FILANNINO Nicola 1956 BA592 BARLETTA SPORTIVA 46:27 1h39:08
    446 TM    52 2580 CARBONARA Michele 1981 BA551 ASS. NAZIONALE BERSAGLIERI BAR 48:39 1h39:09
    447 MM50 55 2145 OTTOMANO Gianvito 1959 BA011 A.S. ATLETICA CASTELLANA 48:40 1h39:10
    448 MM40   107 2602 TASCA Antonio 1968 BA554 FREE RUNNERS MOLFETTA 48:41 1h39:11
    449 TM    53 2708 LAGRASTA Fedele 1979 BA592 BARLETTA SPORTIVA 49:47 1h39:16
    450 MM50 56 2477 ANGIOLILLO Pietro 1959 BA526 PODISTICA ALBEROBELLO A.S.D. 47:48 1h39:19
    451 MM40   108 1112 CITO Martino 1968 TA441 G.S. PAOLOTTI - ATL MARTINA 49:38 1h39:20
    452 MM55    26 2613 GINO Nicola 1956 BA555 AVIS PODISTICA MOLA 47:07 1h39:21
    453 MM45    94 2519 LETTINI Giuseppe 1964 BA543 MARATHON CLUB MINERVINO 47:28 1h39:22
    454 MM55    27 2480 SABATELLI Vito Nicola 1956 BA526 PODISTICA ALBEROBELLO A.S.D. 48:15 1h39:22
    455 MM45    95 2516 BEVILACQUA Michele 1967 BA543 MARATHON CLUB MINERVINO 47:28 1h39:24
    456 MM40   109 2791 DELFINE Domenico 1971 BA700 A.S.D. NADIR ON THE ROAD - PUT 49:13 1h39:24
    457 TM    55 2840 LISI Francesco 1983 BA705 BITONTO RUNNERS 51:01 1h39:25
    458 TM    54 2826 ACHILLE Damiano 1978 BA705 BITONTO RUNNERS 49:40 1h39:26
    459 MM50 57 2491 PONTRANDOLFO Giovanni 1960 BA531 A.S.D. SAN NICOLA RUNNERS 47:45 1h39:32
    460 MM50 58 2478 DE LUCA Dino Mario dona 1959 BA526 PODISTICA ALBEROBELLO A.S.D. 48:14 1h39:33
    461 NTF     8 1364 NETTI Vincenzo 1966 LIB01 LIBERI 49:12 1h39:36
    462 MM45    96 2975 GRECO Vincenzo 1964 BR135 ATLETICA CITTA' BIANCA 44:56 1h39:37
    463 MM45    97 2305 CAPRA Giuseppe 1966 BA058 ATLETICA  MONOPOLI 47:58 1h39:40
    464 MM40   110 2427 ARBUES Domenico 1969 BA505 A.S. QUELLI DELLA PINETA 48:46 1h39:44
    465 NTF     9 1349 DEFLORIO Arcangelo 1973 LIB01 LIBERI 47:19 1h39:45
    466 MM40   111 1384 FANUZZI Genesio 1968 MT023 POL. ROCCO SCOTELLARO MT 48:25 1h39:46
    467 MM45    98 1383 DE STEFANO Lucio 1964 MT023 POL. ROCCO SCOTELLARO MT 48:25 1h39:47
    468 MM45    99 2530 DEGNI Raffaele 1966 BA544 ATLETICA DISFIDA DI BARLETTA 49:55 1h39:48
    469 MM50 59 2283 CAPRIULO Giovanni 1962 BA052 BARI ROAD RUNNERS CLUB 48:24 1h39:48
    470 MM50 60 1228 IGNONE Mario 1961 BR143 PODISTICA CAROVIGNO 49:41 1h39:48
    471 MM45   100 1389 MINEI Arcangelo 1965 MT564 LUCANI FREE RUNNERS 49:39 1h39:48
    472 MM35 67 2710 LANOTTE Ruggiero 1977 BA592 BARLETTA SPORTIVA 48:38 1h39:49
    473 MM45   101 2685 CORCELLA Luigi 1966 BA592 BARLETTA SPORTIVA 47:58 1h39:49
    474 MM40   112 1223 EPIFANI Oronzo 1972 BR143 PODISTICA CAROVIGNO 49:42 1h39:54
    475 MM40   113 2820 FIORE Angelo 1968 BA703 HAPPY RUNNERS ALTAMURA 48:19 1h39:55
    476 TM    56 1180 PASSARELLI Antonio 1980 TA459 TOP RUNNERS LATERZA 47:55 1h39:56
    477 MM45   102 1445 SEMERARO Lorenzo 1966 TA424 CORRERE E' SALUTE MOTTOLA 48:17 1h39:58
    478 MM55    28 1269 SESTO Gregorio 1956 CZ009 LIBERTAS ATL.LAMEZIA 48:09 1h39:58
    479 NTF    10 1356 GRASSI Gianfranco 1971 LIB01 LIBERI 46:50 1h39:59
    480 MM40   114 1155 SOLITO Rocco 1971 TA450 GRUPPO MARATHON MARTINA FRANCA 49:03 1h40:00
    481 MM70     1 1416 NILLA Oronzo Ciro 1942 TA402 A.S.ATL. OTTICA SARACINO GROTT 49:38 1h40:00
    482 MM50 61 1273 ALICINO Raffaele 1962 FG257 G.S. ATL. SAN FERDINANDO 48:30 1h40:01
    483 MM50 62 1485 CASTRONOVI Vincenzo 1962 TA432 S.ATL. S.G.BOSCO  PALAGIANELLO 48:28 1h40:02
    484 MM45   103 1337 COPPINI Ugo 1965 LE604 ATLETICA SURBO 48:39 1h40:05
    485 MM45   104 2711 LAPORTA Ruggiero 1965 BA592 BARLETTA SPORTIVA 47:58 1h40:06
    486 MM35 68 2866 MASTROGIACOMO Francesco 1974 BA710 A.S.D. GRAVINA FESTINA LENTE! 48:02 1h40:07
    487 MM45   105 1151 SEMERARO Vitantonio 1965 TA450 GRUPPO MARATHON MARTINA FRANCA 49:38 1h40:09
    488 MM40   115 1114 MARZULLI Giuseppe 1968 TA441 G.S. PAOLOTTI - ATL MARTINA 49:37 1h40:09
    489 TM    57 1138 CARUCCI Giuseppe 1978 TA450 GRUPPO MARATHON MARTINA FRANCA 49:38 1h40:09
    490 MM50 63 1144 GIANFRATE Giuseppe 1961 TA450 GRUPPO MARATHON MARTINA FRANCA 49:38 1h40:09
    491 MM35 69 1139 CECERE Vitantonio 1973 TA450 GRUPPO MARATHON MARTINA FRANCA 49:39 1h40:09
    492 MM35 70 1438 BERNALDA Vincenzo 1973 TA424 CORRERE E' SALUTE MOTTOLA 47:54 1h40:10
    493 MM40   116 2557 DILEO Leonardo 1970 BA550 AVIS IN CORSA CONVERSANO 48:46 1h40:17
    494 MM50 64 2137 ELEFANTE Giuseppe 1958 BA011 A.S. ATLETICA CASTELLANA 49:13 1h40:19
    495 TM    58 2789 DARESTA Fabio 1989 BA700 A.S.D. NADIR ON THE ROAD - PUT 50:17 1h40:20
    496 MM50 65 2995 GATTI Giuseppe 1958 BR138 A.S. TEAM FRANCAVILLA 49:21 1h40:21
    497 MM55    29 2180 LAERA Cosimo 1957 BA025 A.S. AMATORI PUTIGNANO 50:20 1h40:23
    498 MM45   107 2821 MAGGI Sebastiano 1966 BA703 HAPPY RUNNERS ALTAMURA 50:03 1h40:24
    499 MM45   108 1335 TAURINO Antonello 1964 LE601 A.S. ACTION RUNNING MONTERONI 47:27 1h40:24
    500 MM45   106 2823 PALASCIANO Felice 1964 BA703 HAPPY RUNNERS ALTAMURA 50:04 1h40:25
    501 MM35 71 1320 FORCIGNANO Massimo 1973 LE307 S.S. A.V.I.S.  SPORT NOVOLI 49:18 1h40:25
    502 MM50 66 2259 MAZZILLI Antonio 1960 BA043 G.S.ATLETICA AMATORI CORATO 49:44 1h40:30
    503 MM45   109 2214 BARTOLI Nicola 1965 BA029 A.A.'E. MANZARI' CASAMASSIMA 46:40 1h40:31
    504 MM55    30 2187 MAGGIPINTO Pietro 1953 BA025 A.S. AMATORI PUTIGNANO 48:16 1h40:33
    505 MM40   117 2236 NERI Salvatore 1972 BA039 A.S.D. AMICI STRADA DEL TESORO 48:49 1h40:35
    506 MM45   110 2430 GRIMALDI Paolo 1965 BA505 A.S. QUELLI DELLA PINETA 50:07 1h40:36
    507 MM55    31 2432 LADISA Francesco 1955 BA505 A.S. QUELLI DELLA PINETA 50:07 1h40:42
    508 MM50 67 2431 LACITIGNOLA Francesco S 1959 BA505 A.S. QUELLI DELLA PINETA 50:07 1h40:43
    509 MM45 111 2873 CASCIONE DENTUTO Cosimo 1963 BA711 BIO AMBRA NEW AGE 48:45 1h40:43
    510 MF40     7 2931 PUGLIESE Caterina 1969 BA714 ALBEROBELLO RUNNING ASD 50:35 1h40:43
    511 TM    59 1133 SPINOSA Antonio 1981 TA446 A.S.D. MARATHON MASSAFRA 52:39 1h40:44
    512 MM45 112 2679 CAMPOBASSO Vitopasquale 1967 BA592 BARLETTA SPORTIVA 1h04:49 1h40:45
    513 MM35 72 1321 LONGO Filippo 1976 LE307 S.S. A.V.I.S.  SPORT NOVOLI 49:18 1h40:46
    514 MM55    32 2781 SANTAMARIA Vito Leonard 1957 BA599 RUNNING PEOPLE NOICATTARO 49:13 1h40:50
    515 MM40   119 2206 DICORATO Savino 1970 BA026 ATLETICA BARLETTA 48:39 1h40:52
    516 TM    60 2874 CENTRONZE Alessandro 1980 BA711 BIO AMBRA NEW AGE 49:04 1h40:53
    517 MM35 73 2439 ZAPPULLA Marcantonio 1975 BA505 A.S. QUELLI DELLA PINETA 50:12 1h40:54
    518 MM45 113 2932 RAMUNNI Vito Domenico 1967 BA714 ALBEROBELLO RUNNING ASD 50:35 1h41:07
    519 TF     3 1184 GENTILE Liliana 1982 TA460 BODY ANGEL 48:07 1h41:11
    520 MM35 74 2288 MORISCO Giuseppe 1973 BA052 BARI ROAD RUNNERS CLUB 48:08 1h41:12
    521 MM55    33 2979 MARZIO Leonardo 1957 BR135 ATLETICA CITTA' BIANCA 48:09 1h41:13
    522 MM45 114 1119 MUSCO Antonio 1965 TA445 A.S.D.  PODISTICA TALSANO 48:16 1h41:14
    523 MM40   120 1286 PERROTTA Luigi 1968 FG264 A.S. CULTURALE POD. S. STEFANO 49:47 1h41:18
    524 MM50 68 2213 ATTOLINI Paolo 1961 BA029 A.A.'E. MANZARI' CASAMASSIMA 51:48 1h41:19
    525 MM35 75 2776 MAGGIOLINO Giacomo 1973 BA599 RUNNING PEOPLE NOICATTARO 49:12 1h41:20
    526 MM35 76 2704 GENTILE Antonio 1975 BA592 BARLETTA SPORTIVA 47:14 1h41:21
    527 MM35 77 2146 PINTO Lorenzo 1974 BA011 A.S. ATLETICA CASTELLANA 49:05 1h41:22
    528 MM50 69 2877 GREGORIO Ruggiero 1959 BA711 BIO AMBRA NEW AGE 49:06 1h41:23
    529 MM35 78 2684 CINIERO Salvatore 1973 BA592 BARLETTA SPORTIVA 49:47 1h41:24
    530 MM60    15 2481 DEL VENTO Vito 1952 BA529 A.S. TRANI MARATHON 50:06 1h41:25
    531 MM45   115 1183 FAVIA Marcello 1964 TA460 BODY ANGEL 49:22 1h41:28
    532 MM35 79 1498 GALATONE Daniele 1974 TA440 ATHLETIC TEAM PALAGIANO 49:44 1h41:29
    533 MM55    34 2854 IANNIELLO Luigi 1957 BA707 DREAM TEAM BARI 50:19 1h41:30
    534 MM50 70 2512 PALMIERI Felice 1959 BA538 ATLETI  VALLE DELL'OFANTO 48:38 1h41:31
    535 MM35 80 2830 BRUNO Giuseppe 1975 BA705 BITONTO RUNNERS 51:02 1h41:38
    536 MM50 71 2883 MESTO Nicola 1959 BA711 BIO AMBRA NEW AGE 49:07 1h41:39
    537 MM45   116 1266 LEOCI Cosimo 1965 CZ009 LIBERTAS ATL.LAMEZIA 49:17 1h41:40
    538 MM35 81 1250 LEGROTTAGLIE Giulio 1975 BR146 A.S.D. ATLETICA PEZZE DI GRECO 49:56 1h41:41
    539 MM60    12 2354 GIANNOSI Mauro 1948 BA082 ATLETICA TOMMASO ASSI TRANI 49:23 1h41:43
    540 MM35 82 2207 GARRINELLA Savino 1973 BA026 ATLETICA BARLETTA 47:26 1h41:44
    541 MM50 72 1338 DELL'ANGELO CUSTODE Dan 1961 LE604 ATLETICA SURBO 48:39 1h41:47
    542 MM50 73 1283 GIANNATEMPO Matteo 1958 FG264 A.S. CULTURALE POD. S. STEFANO 49:47 1h41:48
    543 MM55    35 1227 IAIA Salvatore 1956 BR143 PODISTICA CAROVIGNO 49:41 1h41:49
    544 MM65     4 2564 LOPRIORE Bonifacio Ange 1946 BA550 AVIS IN CORSA CONVERSANO 48:36 1h41:50
    545 MM45   117 2785 BITETTO Cosimo Damiano 1964 BA700 A.S.D. NADIR ON THE ROAD - PUT 49:37 1h41:51
    546 MM50 74 1424 MARANGI Giuseppe 1960 TA415 A.S.AMATORI PODISTICA MASSAFRA 50:34 1h41:55
    547 MM55    36 1497 DI BENEDETTO Agostino 1954 TA440 ATHLETIC TEAM PALAGIANO 49:43 1h41:56
    548 TF     4 1110 ROTOLO Marina 1978 TA440 ATHLETIC TEAM PALAGIANO 49:44 1h41:57
    549 MM60    16 2428 BIALLO Ugo 1951 BA505 A.S. QUELLI DELLA PINETA 47:53 1h41:58
    550 TM    61 1280 ABATINO Adolfo 1979 FG264 A.S. CULTURALE POD. S. STEFANO 49:46 1h42:02
    551 MM45   118 2451 LOVAGLIO Francesco 1966 BA507 A.MARATONETI ANDRIESI 50:43 1h42:04
    552 MM50 75 1478 MATERA Vito 1960 TA426 NUOVA ATLETICA LATERZA 49:07 1h42:05
    553 MM55    37 2260 PIANCONE Giuseppe 1957 BA043 G.S.ATLETICA AMATORI CORATO 49:45 1h42:06
    554 MM35 83 2296 ALBA Raimondo 1973 BA058 ATLETICA  MONOPOLI 50:52 1h42:06
    555 TF     5 1107 PETRALLA Domiziana 1979 TA440 ATHLETIC TEAM PALAGIANO 49:44 1h42:09
    556 MM60    17 2241 MASSA Sabino 1951 BA041 ATLETICA PRO CANOSA 48:53 1h42:12
    557 MM35 84 2974 GALIZIA Giuseppe 1977 BR135 ATLETICA CITTA' BIANCA 48:46 1h42:15
    558 MF40     8 1467 MATTESI Maria Edvige 1971 TA425 ASD POD. FAGGIANO V.P. SERVICE 48:39 1h42:20
    559 MM45   119 1323 NORBERTI Vito 1966 LE307 S.S. A.V.I.S.  SPORT NOVOLI 51:06 1h42:27
    560 MM40   121 2611 CONENNA Domenico 1971 BA555 AVIS PODISTICA MOLA 50:48 1h42:44
    561 ASF     7 2155 FERRUCCI Alessandra I 1980 BA015 A.S. OLIMPIA CLUB 50:02 1h42:45
    562 TM    62 2344 SALVEMINI Ruggiero 1982 BA062 A.S. KANKUDAI 42:24 1h42:49
    563 MM45   120 2678 CAFAGNA Antonio 1965 BA592 BARLETTA SPORTIVA 47:16 1h42:50
    564 MM45 121 2677 BOSCHETTO Damiano Paolo 1966 BA592 BARLETTA SPORTIVA 48:40 1h42:50
    565 MM50 76 1168 BOZZARDI Salvino 1961 TA456 TARANTO SPORTIVA 47:17 1h42:51
    566 MM45 122 2561 LAGATTOLLA Vittorio 1964 BA550 AVIS IN CORSA CONVERSANO 50:28 1h42:52
    567 MM40   122 1205 MARINOSCI Pietro 1972 BR138 A.S. TEAM FRANCAVILLA 49:22 1h43:03
    568 MM40   123 1118 DRIVIO Lorenzo 1969 TA445 A.S.D.  PODISTICA TALSANO 49:06 1h43:06
    569 MM45 123 2786 CAMPANELLA Giovanni 1966 BA700 A.S.D. NADIR ON THE ROAD - PUT 50:01 1h43:07
    570 MM45 124 1284 MANSI Matteo 1966 FG264 A.S. CULTURALE POD. S. STEFANO 49:35 1h43:11
    571 MM45 125 1175 SPINELLI Domenico 1963 TA456 TARANTO SPORTIVA 49:35 1h43:12
    572 TM    63 2166 DAPRILE Vito Silvano 1979 BA025 A.S. AMATORI PUTIGNANO 49:09 1h43:18
    573 MM55    38 1385 SABATO Paolo 1954 MT023 POL. ROCCO SCOTELLARO MT 51:30 1h43:19
    574 MM50 77 2578 VALENTE Nicola Giuseppe 1960 BA550 AVIS IN CORSA CONVERSANO 48:23 1h43:23
    575 MM35 85 2396 CARIELLO Francesco 1975 BA502 A.S.D. MONTEDORO NOCI 49:56 1h43:25
    576 MM55    39 2289 NINNI Rodolfo 1954 BA052 BARI ROAD RUNNERS CLUB 50:40 1h43:26
    577 MF35     5 2882 MASTROROSA Cristina 1974 BA711 BIO AMBRA NEW AGE 50:01 1h43:31
    578 MM50 78 2115 FINA Mario 1959 BA005 AMATORI ATL. ACQUAVIVA 50:28 1h43:32
    579 MF40     9 2445 DI BARI Lucia 1970 BA507 A.MARATONETI ANDRIESI 51:05 1h43:33
    580 MF45     4 2168 DELFINE Marcella 1967 BA025 A.S. AMATORI PUTIGNANO 50:20 1h43:36
    581 MM45 126 1222 DE CILLIS Angelo 1966 BR143 PODISTICA CAROVIGNO 49:53 1h43:37
    582 MM40   124 1135 LO BARCO Pasquale 1969 TA448 IKKOS ATHLETIC TEAM 48:53 1h43:38
    583 MM70     2 1436 VALENTE Tommaso 1942 TA423 CLUB RUNNER 87 VALENTE ARREDI 50:18 1h43:55
    584 MM45 127 2211 RUTIGLIANO Ruggiero 1967 BA026 ATLETICA BARLETTA 52:34 1h43:56
    585 MM35 86 2545 ACQUAVIVA Massimiliano 1973 BA546 POD. VALLE D'ITRIA LOCOROTONDO 52:52 1h43:58
    586 MM45 128 2605 VISAGGI Nicolo' 1965 BA554 FREE RUNNERS MOLFETTA 50:38 1h43:58
    587 MM55    40 2596 GERVASIO Sergio Edmondo 1955 BA554 FREE RUNNERS MOLFETTA 50:38 1h43:59
    588 MM50 79 1479 SCARATI Michele 1961 TA426 NUOVA ATLETICA LATERZA 49:40 1h44:01
    589 MM50 80 2794 ELEFANTE Mario 1962 BA700 A.S.D. NADIR ON THE ROAD - PUT 49:36 1h44:02
    590 MM50 81 2952 LACENERE Domenico 1962 BR113 ATLETICA CASALINI 50:02 1h44:03
    591 MM65     5 2743 TRAVERSA Nicola Vito 1944 BA594 PEDONE-RICCARDI BISCEGLIE 49:09 1h44:08
    592 MM40   125 1167 RICCI Angelo Michele 1971 TA451 A.S.D. ATLETICA DON MILANI 49:10 1h44:09
    593 ASM     9 1394 LIMONGI Giampiero I 1990 PZ034 CLUB ATLETICO LAURIA 43:54 1h44:24
    594 MM35 87 1310 DE FELICE Giacinto 1977 FG285 ATLETICA TRINITAPOLI 51:58 1h44:26
    595 MM45 129 2604 VIGGIANI Ettore Michele 1967 BA554 FREE RUNNERS MOLFETTA 51:42 1h44:27
    596 MF45     5 2919 FERRANTE Giovanna 1965 BA714 ALBEROBELLO RUNNING ASD 51:43 1h44:30
    597 MF40    10 1156 SOLITO Efisia 1972 TA450 GRUPPO MARATHON MARTINA FRANCA 49:38 1h44:31
    598 MM35 88 2921 GIOTTA Sebastiano 1974 BA714 ALBEROBELLO RUNNING ASD 52:09 1h44:35
    599 MF40    11 1463 LOMBARDI Rosa 1970 TA425 ASD POD. FAGGIANO V.P. SERVICE 52:10 1h44:36
    600 MM35 89 1461 INTERNO' Fabrizio 1973 TA425 ASD POD. FAGGIANO V.P. SERVICE 52:11 1h44:37
    601 MM60    18 2197 SABATO Francesco 1951 BA025 A.S. AMATORI PUTIGNANO 50:00 1h44:37
    602 MM40   126 2714 LISO Nicola 1970 BA592 BARLETTA SPORTIVA 50:42 1h44:38
    603 MM35 90 1297 DAMATO Gianfranco 1974 FG284 MARGHERITA DI SAVOIA RUNNERS 52:48 1h44:47
    604 MM35 91 2846 RICCI Vito Andrea 1973 BA705 BITONTO RUNNERS 51:02 1h44:48
    605 ASF     8 1397 MARADEI Maria Giuseppin I 1987 PZ035 ATL. FEMMINILE SEDAS LAURIA 50:48 1h44:49
    606 MM40   127 1441 MARTUCCI Donato 1971 TA424 CORRERE E' SALUTE MOTTOLA 51:05 1h44:53
    607 MM45 130 2665 ARGANESE Cosimo 1964 BA587 LA PIETRA 51:56 1h44:54
    608 MM40   128 2668 CHIECO Raffaele 1968 BA587 LA PIETRA 51:56 1h44:54
    609 MM55    41 2660 USAI Giovanni 1957 BA586 A.S.D. ASOPICO RUNNING BARI 51:57 1h44:55
    610 MF35     6 2234 GIULIANI Giacoma 1973 BA039 A.S.D. AMICI STRADA DEL TESORO 51:03 1h44:56
    611 MM40   129 1298 DI LECCE Francesco 1972 FG284 MARGHERITA DI SAVOIA RUNNERS 51:04 1h44:57
    612 NTF    11 1360 LORUSSO Vincenza 1971 LIB01 LIBERI 51:05 1h44:58
    613 MM40   130 1141 COLUCCI Giuseppe 1971 TA450 GRUPPO MARATHON MARTINA FRANCA 48:58 1h45:01
    614 MM45 131 2862 DEBENEDICTIS Michele 1963 BA710 A.S.D. GRAVINA FESTINA LENTE! 47:43 1h45:04
    615 NTF    12 1371 ROMANO Gaetano 1977 LIB01 LIBERI 51:48 1h45:07
    616 MM40   131 1128 MORRONE Antonio 1969 TA446 A.S.D. MARATHON MASSAFRA 50:35 1h45:08
    617 MM40   132 2591 DE GENNARO Luigi 1971 BA554 FREE RUNNERS MOLFETTA 52:32 1h45:09
    618 MM55    42 2242 PELLEGRINO Michele 1954 BA041 ATLETICA PRO CANOSA 51:22 1h45:10
    619 MM40   133 1477 GALLITELLI Sebastiano 1970 TA426 NUOVA ATLETICA LATERZA 50:37 1h45:12
    620 NTF    13 1363 NAPOLETANO  Giuseppe 1989 LIB01 LIBERI 51:22 1h45:18
    621 NTF    14 1345 CAPITANIO Antonella 1981 LIB01 LIBERI 51:23 1h45:21
    622 MM40   134 2676 BARBERA Michele 1971 BA592 BARLETTA SPORTIVA 51:50 1h45:22
    623 MM45 132 2405 LENOCI Pasquale 1965 BA502 A.S.D. MONTEDORO NOCI 52:18 1h45:23
    624 MM45 133 2945 ANGELOTTI Silvio 1965 BR109 TOP RUNNING  BRINDISI 49:43 1h45:23
    625 MM50 82 2675 BARBERA Riccardo 1961 BA592 BARLETTA SPORTIVA 52:43 1h45:23
    626 TM    64 1256 PAPPAGALLO Giovanni 1986 CO711 TEAM OTC COMO 50:04 1h45:31
    627 MM45 134 1229 LANZILLOTTI Fedele 1965 BR143 PODISTICA CAROVIGNO 49:54 1h45:32
    628 MM35 92 2462 MINCUZZI Massimo 1977 BA517 ASS. DILETTANTIST BARIMARATONA 51:05 1h45:33
    629 MM50 83 1448 BAVILA Giovanni 1961 TA425 ASD POD. FAGGIANO V.P. SERVICE 52:33 1h45:33
    630 TM    65 2563 LIPPOLIS Maurizio 1980 BA550 AVIS IN CORSA CONVERSANO 52:28 1h45:34
    631 MM40   135 2162 CHIAPPERINO Cristoforo 1970 BA025 A.S. AMATORI PUTIGNANO 53:35 1h45:34
    632 MM55    43 1247 CARDONE Enrico 1956 BR146 A.S.D. ATLETICA PEZZE DI GRECO 50:12 1h45:34
    633 NTF    15 1192 CAPUTO Vincenzo 1978 LIB01 LIBERI 50:13 1h45:35
    634 MM40   136 2157 BIASI Giuseppe 1968 BA025 A.S. AMATORI PUTIGNANO 49:10 1h45:38
    635 MM45 135 1125 MARANGI Rocco 1967 TA446 A.S.D. MARATHON MASSAFRA 50:34 1h45:41
    636 NTF    16 1357 LANEVE Antonio 1958 LIB01 LIBERI 50:25 1h45:42
    637 MM35 93 2663 ZINGARELLI Francesco 1975 BA586 A.S.D. ASOPICO RUNNING BARI 50:45 1h45:43
    638 MM45 136 2265 RUTIGLIANO Michele 1965 BA043 G.S.ATLETICA AMATORI CORATO 51:34 1h45:45
    639 MM45 137 2266 SANTARELLA Giuseppe 1963 BA043 G.S.ATLETICA AMATORI CORATO 47:13 1h45:47
    640 MM40   137 2113 DI BARI Salvatore 1968 BA005 AMATORI ATL. ACQUAVIVA 51:45 1h45:48
    641 MF45     6 1296 BUFALO Alfonsina 1965 FG284 MARGHERITA DI SAVOIA RUNNERS 50:35 1h45:49
    642 MM35 94 2689 DAMATO Cosimo Damiano 1974 BA592 BARLETTA SPORTIVA 50:34 1h45:49
    643 MM60    19 2417 SCARANO Angelo 1950 BA502 A.S.D. MONTEDORO NOCI 50:47 1h45:51
    644 MM45 138 2177 IMPEDOVO Sebastiano 1963 BA025 A.S. AMATORI PUTIGNANO 50:20 1h45:53
    645 ASM    10 2498 CARONE Giacinto I 1996 BA535 A.S. ATLETICA POLIGNANO 50:29 1h45:56
    646 MM40   138 2497 CARONE Pasquale 1968 BA535 A.S. ATLETICA POLIGNANO 50:28 1h45:56
    647 MM55    44 2726 RIZZI Cosimo Damiano 1957 BA592 BARLETTA SPORTIVA 51:07 1h45:57
    648 MM55    45 2340 PISANI Francesco 1957 BA062 A.S. KANKUDAI 51:04 1h46:02
    649 MM45 139 1482 CARPIGNANO Lorenzo 1964 TA432 S.ATL. S.G.BOSCO  PALAGIANELLO 52:29 1h46:03
    650 MM55    46 2286 LOCONSOLE Costanzo 1957 BA052 BARI ROAD RUNNERS CLUB 50:40 1h46:04
    651 MM70     3 2808 NETTI Giuseppe 1941 BA700 A.S.D. NADIR ON THE ROAD - PUT 51:12 1h46:05
    652 MM35 95 2208 GOBBO Gaetano 1974 BA026 ATLETICA BARLETTA 52:13 1h46:06
    653 MM45 140 2112 CARRIERE Mario 1963 BA005 AMATORI ATL. ACQUAVIVA 51:10 1h46:11
    654 TF     6 2688 DALBA Roberta 1980 BA592 BARLETTA SPORTIVA 50:17 1h46:12
    655 MF40    12 2658 SANSEVERINO Anna 1971 BA586 A.S.D. ASOPICO RUNNING BARI 50:17 1h46:12
    656 MM45 141 1237 SIMINI Cristino 1967 BR143 PODISTICA CAROVIGNO 52:00 1h46:13
    657 MM40   139 1239 VALENTE Giovanni 1968 BR143 PODISTICA CAROVIGNO 52:00 1h46:13
    658 MM50 84 2308 GALLIZIA Enzo 1961 BA058 ATLETICA  MONOPOLI 48:17 1h46:15
    659 NTF    17 1347 D'ALESSANDRO  Pasquale 1974 LIB01 LIBERI 51:48 1h46:18
    660 MM55    47 2856 QUISTELLI Vitantonio 1957 BA707 DREAM TEAM BARI 51:49 1h46:19
    661 MM35 96 2404 LAFORGIA Valentino 1974 BA502 A.S.D. MONTEDORO NOCI 52:16 1h46:20
    662 MM65     6 2892 CAPURSO Francesco 1945 BA713 GIOIA RUNNING A.S.D. 51:22 1h46:21
    663 MM35 97 2906 RAIMONDI Michele 1973 BA713 GIOIA RUNNING A.S.D. 51:22 1h46:26
    664 MM50 85 2901 NUNZIANTE Cesaro Vincen 1959 BA713 GIOIA RUNNING A.S.D. 51:29 1h46:26
    665 MM35 98 2900 NOTARNICOLA Giovanni 1977 BA713 GIOIA RUNNING A.S.D. 51:21 1h46:26
    666 TM    66 2889 ANTONICELLI Domenico 1978 BA713 GIOIA RUNNING A.S.D. 51:21 1h46:27
    667 MM45 142 1219 SIBILIO Giovanni 1966 BR141 POLISPORT CICLO CLUB FASANO 50:58 1h46:32
    668 MM40   140 2574 RENNA Mario 1972 BA550 AVIS IN CORSA CONVERSANO 52:31 1h46:36
    669 MF40    13 2937 SCALISI Elena 1970 BA714 ALBEROBELLO RUNNING ASD 52:11 1h46:37
    670 MM40   141 2807 NARDELLI Pietro 1968 BA700 A.S.D. NADIR ON THE ROAD - PUT 52:11 1h46:37
    671 MM35 99 2914 D'ORIA Mario 1976 BA714 ALBEROBELLO RUNNING ASD 52:11 1h46:37
    672 MM45 143 2765 PERTOSO Giuseppe 1964 BA596 A.S.D. ANDRIA RUNS 51:31 1h46:39
    673 MM40   142 1299 DI TRANI Gioacchino 1970 FG284 MARGHERITA DI SAVOIA RUNNERS 53:01 1h46:46
    674 MM40   143 1303 PIAZZOLLA Davide 1970 FG284 MARGHERITA DI SAVOIA RUNNERS 53:01 1h46:46
    675 MM40   144 2764 MODUGNO Antonio 1969 BA596 A.S.D. ANDRIA RUNS 52:03 1h46:52
    676 MM45 144 2472 DE NITTO Ernesto 1966 BA525 CRAL AMIU BARI 51:42 1h46:53
    677 TF     7 1412 CINIERO Maria 1989 TA402 A.S.ATL. OTTICA SARACINO GROTT 53:40 1h46:57
    678 MM50 86 1413 CONTE Giovanni 1958 TA402 A.S.ATL. OTTICA SARACINO GROTT 53:40 1h46:57
    679 MM50 87 2700 DRAGO Antonio 1961 BA592 BARLETTA SPORTIVA 52:43 1h46:57
    680 MM35 100 1325 PALADINI Salvatore 1974 LE307 S.S. A.V.I.S.  SPORT NOVOLI 52:48 1h47:01
    681 MM35 101 1468 MENNILLO Giorgio 1973 TA425 ASD POD. FAGGIANO V.P. SERVICE 53:36 1h47:05
    682 MM45 145 2988 TANZARELLA Francesco 1964 BR135 ATLETICA CITTA' BIANCA 53:37 1h47:06
    683 MM45 146 2971 ELIA Leonardo 1965 BR135 ATLETICA CITTA' BIANCA 52:12 1h47:07
    684 MM50 88 2464 SGARAMELLA Riccardo 1962 BA517 ASS. DILETTANTIST BARIMARATONA 52:13 1h47:08
    685 MM55    48 2293 SCARAMUZZI Andrea 1956 BA052 BARI ROAD RUNNERS CLUB 51:43 1h47:09
    686 MM50 89 2294 SERAFINO Antonio 1958 BA052 BARI ROAD RUNNERS CLUB 51:43 1h47:12
    687 MF40    14 2756 DI LEO Maria Angela 1972 BA596 A.S.D. ANDRIA RUNS 52:04 1h47:13
    688 MM50 90 2535 LASALA Ignazio 1958 BA544 ATLETICA DISFIDA DI BARLETTA 51:23 1h47:14
    689 MM45 147 1159 DE NICOLA Raffaele 1966 TA451 A.S.D. ATLETICA DON MILANI 52:17 1h47:18
    690 MM60    20 2398 DE GRAZIA Anastasio Mar 1951 BA502 A.S.D. MONTEDORO NOCI 52:18 1h47:20
    691 MM55    49 2244 TUCCIARONE Giuseppe 1955 BA041 ATLETICA PRO CANOSA 49:07 1h47:21
    692 MM35 102 2338 LUCENTE Franco 1974 BA062 A.S. KANKUDAI 50:22 1h47:22
    693 MM50 91 2412 PACE Carmine 1958 BA502 A.S.D. MONTEDORO NOCI 52:17 1h47:28
    694 MM45 148 2178 INTINI Paolo 1966 BA025 A.S. AMATORI PUTIGNANO 53:39 1h47:31
    695 MM35 103 2828 BAGLIVO Domenico 1973 BA705 BITONTO RUNNERS 52:35 1h47:33
    696 MM35 104 2410 MASCIOPINTO Matteo 1974 BA502 A.S.D. MONTEDORO NOCI 49:56 1h47:37
    697 MM35 105 1277 MARRONE Antonio 1973 FG257 G.S. ATL. SAN FERDINANDO 52:17 1h47:38
    698 MM40   145 1278 PARENTE Nicola Rosario 1972 FG257 G.S. ATL. SAN FERDINANDO 52:17 1h47:41
    699 MM45 149 2848 STELLACCI Vito 1965 BA705 BITONTO RUNNERS 52:41 1h47:42
    700 MM35 106 2944 SCATIGNO Antonio 1976 BR103 ATLETICA AMATORI BRINDISI 52:38 1h47:43
    701 MM50 92 2355 GUGLIELMI Giovanni Batt 1958 BA082 ATLETICA TOMMASO ASSI TRANI 50:43 1h47:57
    702 MM40   146 1176 VALENTINI Ivan 1972 TA456 TARANTO SPORTIVA 50:14 1h47:59
    703 MM50 93 1122 IZZINOSA Mario 1959 TA446 A.S.D. MARATHON MASSAFRA 51:52 1h48:02
    704 MM40   147 2507 TANESE Antonio 1971 BA535 A.S. ATLETICA POLIGNANO 55:26 1h48:05
    705 TM    67 2601 TAMBORRA Antonio 1980 BA554 FREE RUNNERS MOLFETTA 52:32 1h48:06
    706 MM40   148 2983 SALONNA Francesco 1972 BR135 ATLETICA CITTA' BIANCA 52:33 1h48:11
    707 MM50 94 2281 CALDAROLA Francesco 1962 BA052 BARI ROAD RUNNERS CLUB 51:57 1h48:13
    708 MM45 150 2500 L' ABBATE Vito 1964 BA535 A.S. ATLETICA POLIGNANO 49:11 1h48:14
    709 MM40    96 2674 BAILON Francesco 1968 BA592 BARLETTA SPORTIVA 52:43 1h48:15
    710 MF55     1 2262 PISICCHIO Rosa 1957 BA043 G.S.ATLETICA AMATORI CORATO 52:26 1h48:15
    711 MM50 95 2543 VALERIO Luigi 1959 BA544 ATLETICA DISFIDA DI BARLETTA 56:14 1h48:15
    712 MM40   149 1171 DE BELLIS Fabio 1969 TA456 TARANTO SPORTIVA 52:33 1h48:18
    713 MM45 151 2188 MAGNOLIA Giuseppe 1963 BA025 A.S. AMATORI PUTIGNANO 49:36 1h48:19
    714 MM50 96 2492 ROMEO Giancarlo 1960 BA531 A.S.D. SAN NICOLA RUNNERS 51:13 1h48:21
    715 MM55    50 2772 CONTE Costantino 1956 BA599 RUNNING PEOPLE NOICATTARO 51:14 1h48:22
    716 MM45 152 2829 BISCEGLIE Giuseppe 1967 BA705 BITONTO RUNNERS 52:34 1h48:24
    717 NTF    18 1375 SCARAMUZZI Giuseppe 1967 LIB01 LIBERI 53:38 1h48:25
    718 MF55     2 2541 TATO' Maria Addolorata 1956 BA544 ATLETICA DISFIDA DI BARLETTA 50:42 1h48:27
    719 MM45 153 2455 SANTOVITO Vincenzo 1966 BA507 A.MARATONETI ANDRIESI 52:01 1h48:28
    720 MM45 154 2683 CATALETA Cosimo Damiano 1967 BA592 BARLETTA SPORTIVA 51:04 1h48:34
    721 TF     8 1160 DE ROBERTIS Roberta 1979 TA451 A.S.D. ATLETICA DON MILANI 51:22 1h48:36
    722 NTF    19 1377 TARALLO Danierla 1979 LIB01 LIBERI 53:04 1h48:41
    723 ASF     9 2662 ZERBINOTTI Rosalba I 1980 BA586 A.S.D. ASOPICO RUNNING BARI 53:38 1h48:42
    724 MM50 97 1226 GRECO Felice Stefano 1962 BR143 PODISTICA CAROVIGNO 52:00 1h48:43
    725 MM50 98 1340 CARROZZO Francesco 1960 LE632 SALENTO IS RUNNING 50:27 1h48:44
    726 MM55    51 2946 DE FRANCESCO Vito 1953 BR109 TOP RUNNING  BRINDISI 55:15 1h48:45
    727 MM50 99 2275 DONGIOVANNI Nicola 1958 BA049 G.S.P. III REGIONE AEREA BARI 52:13 1h49:09
    728 MM65     7 2822 NINIVAGGI Graziantonio 1946 BA703 HAPPY RUNNERS ALTAMURA 52:06 1h49:10
    729 MM55    52 2158 BILOTTA Francesco Domen 1957 BA025 A.S. AMATORI PUTIGNANO 50:19 1h49:11
    730 MM50 100 2203 VENTRELLA Francesco 1962 BA025 A.S. AMATORI PUTIGNANO 53:38 1h49:12
    731 MM40   150 1382 CARBONE Egidio 1970 MT023 POL. ROCCO SCOTELLARO MT 52:52 1h49:19
    732 MM55    53 2285 DE BENEDICTIS Michele 1956 BA052 BARI ROAD RUNNERS CLUB 49:50 1h49:20
    733 NTF    20 1362 MESTO Ernesto 1978 LIB01 LIBERI 54:43 1h49:26
    734 TF     9 2707 IOCOLA Antonietta 1978 BA592 BARLETTA SPORTIVA 54:52 1h49:27
    735 MM50 101 2135 DELFINE Giuseppe 1960 BA011 A.S. ATLETICA CASTELLANA 53:49 1h49:27
    736 MM35 107 1492 PETRERA Vincenzo 1975 TA432 S.ATL. S.G.BOSCO  PALAGIANELLO 55:03 1h49:27
    737 MM50 102 2511 DALOISO Vito 1961 BA538 ATLETI  VALLE DELL'OFANTO 49:52 1h49:28
    738 MF45     7 2253 DIAFERIA Anna 1967 BA043 G.S.ATLETICA AMATORI CORATO 52:40 1h49:31
    739 MM50 103 2327 ABBRESCIA Pietro 1961 BA062 A.S. KANKUDAI 54:34 1h49:37
    740 MF50     2 2722 PATRUNO Nunzia 1962 BA592 BARLETTA SPORTIVA 51:41 1h49:38
    741 MF35     7 2810 SIMONE Rita 1973 BA700 A.S.D. NADIR ON THE ROAD - PUT 54:01 1h49:38
    742 MM45 155 2774 DILUCCA Vito 1966 BA599 RUNNING PEOPLE NOICATTARO 51:19 1h49:39
    743 MM40   151 2795 FLORENZIO Giuseppe 1969 BA700 A.S.D. NADIR ON THE ROAD - PUT 54:01 1h49:40
    744 MM40   152 2501 L'ABBATE Antonio Giusep 1970 BA535 A.S. ATLETICA POLIGNANO 55:07 1h49:41
    745 MM50 104 2624 PETRONI Prospero 1962 BA581 A.S.D. ATLETICA BITRITTO 52:34 1h49:50
    746 MM45 156 2150 TALENTI Nicola 1965 BA011 A.S. ATLETICA CASTELLANA 52:35 1h49:51
    747 MM50 105 2144 MASTRANGELO Domenico 1960 BA011 A.S. ATLETICA CASTELLANA 54:07 1h49:53
    748 MF40    15 1341 MARCONI Paola 1968 LE632 SALENTO IS RUNNING 51:42 1h49:53
    749 MF45     8 1210 BOZZANO Mariangela 1967 BR141 POLISPORT CICLO CLUB FASANO 55:19 1h49:54
    750 MF45     9 1499 GRECO Addolorata 1966 TA440 ATHLETIC TEAM PALAGIANO 51:42 1h49:54
    751 MF45    10 1104 MORGA Ippolita 1967 TA440 ATHLETIC TEAM PALAGIANO 53:56 1h49:54
    752 MM50 106 2993 ZIZZA Pietro Antonio 1962 BR135 ATLETICA CITTA' BIANCA 52:52 1h49:57
    753 MF40    16 2713 LATTANZIO Cinzia 1972 BA592 BARLETTA SPORTIVA 52:08 1h49:58
    754 MF35     8 1411 BRITTANNICO Elvira 1975 TA402 A.S.ATL. OTTICA SARACINO GROTT 52:09 1h49:59
    755 MM40   153 2489 LORENZINI Emanuele 1971 BA531 A.S.D. SAN NICOLA RUNNERS 50:42 1h50:10
    756 MM45 157 2597 GUTTA' Vitaliano 1964 BA554 FREE RUNNERS MOLFETTA 52:04 1h50:11
    757 MF50     3 2258 MASTROMAURO Rosa 1959 BA043 G.S.ATLETICA AMATORI CORATO 53:54 1h50:12
    758 TM    68 1217 PUGLIESE Vito 1979 BR141 POLISPORT CICLO CLUB FASANO 53:11 1h50:13
    759 MM45 158 2517 DI PALO Michele 1967 BA543 MARATHON CLUB MINERVINO 55:07 1h50:14
    760 MM40   154 2502 LIUZZI Luigi 1968 BA535 A.S. ATLETICA POLIGNANO 55:25 1h50:21
    761 MM45 159 2504 MANCINI Modesto 1967 BA535 A.S. ATLETICA POLIGNANO 55:26 1h50:21
    762 MM55    54 1131 SALVI Cosimo Antonio 1957 TA446 A.S.D. MARATHON MASSAFRA 55:13 1h50:22
    763 MM40   155 2518 INGLESE Raffaele 1970 BA543 MARATHON CLUB MINERVINO 55:07 1h50:30
    764 MF45    11 2191 MOREA Antonia Maria 1966 BA025 A.S. AMATORI PUTIGNANO 53:05 1h50:32
    765 TM    69 2468 DESIO Toni 1980 BA521 A.S. DOF AMATORI TURI 56:41 1h50:33
    766 MF40    17 2134 CONVERTINO Maria Antoni 1969 BA011 A.S. ATLETICA CASTELLANA 53:48 1h50:43
    767 NTF    21 1365 PACIELLO Francesco 1978 LIB01 LIBERI 52:40 1h50:44
    768 MF45    12 1318 BIANCO Raffaella 1966 LE307 S.S. A.V.I.S.  SPORT NOVOLI 52:53 1h50:50
    769 MM45 160 2123 CASERTANO Raffaele 1966 BA007 CUS BARI 53:09 1h50:57
    770 MM60    21 2120 ANDRIOLA Nicolangelo 1951 BA007 CUS BARI 53:04 1h51:01
    771 MM50 107 1174 SOLDINO Daniele 1959 TA456 TARANTO SPORTIVA 53:57 1h51:05
    772 MM35 108 2954 LASORTE Scipione 1976 BR113 ATLETICA CASALINI 52:52 1h51:07
    773 TF    10 2787 COVELLA Angela Rosa 1979 BA700 A.S.D. NADIR ON THE ROAD - PUT 53:12 1h51:08
    774 MM50 108 2827 ATTIVISSIMO Bartolomeo 1960 BA705 BITONTO RUNNERS 53:36 1h51:16
    775 MM50 109 2520 PELLEGRINO Michele 1958 BA543 MARATHON CLUB MINERVINO 55:57 1h51:22
    776 MM55    55 1276 LOPEZ Francesco 1957 FG257 G.S. ATL. SAN FERDINANDO 53:13 1h51:25
    777 MF35     9 2985 STEWART Georgina 1977 BR135 ATLETICA CITTA' BIANCA 53:53 1h51:26
    778 MM45 161 2978 LIUZZI Giovanni 1964 BR135 ATLETICA CITTA' BIANCA 53:53 1h51:26
    779 MM35 109 2964 APRUZZI Angelo 1973 BR135 ATLETICA CITTA' BIANCA 53:54 1h51:27
    780 MM55    56 2313 IPPOLITO Luigi 1954 BA058 ATLETICA  MONOPOLI 50:47 1h51:32
    781 MM50 110 2768 SCIANNANDRONE Giuseppe 1962 BA596 A.S.D. ANDRIA RUNS 50:48 1h51:33
    782 MM50 111 2763 MIRACAPILLO Riccardo 1962 BA596 A.S.D. ANDRIA RUNS 55:06 1h51:35
    783 MM45 162 2757 GAZZILLO Vincenzo 1967 BA596 A.S.D. ANDRIA RUNS 55:06 1h51:35
    784 MF35    10 2923 GRECO Rosangela 1974 BA714 ALBEROBELLO RUNNING ASD 55:16 1h51:37
    785 MM35 110 2936 SALAMIDA Giuseppe 1977 BA714 ALBEROBELLO RUNNING ASD 52:11 1h51:38
    786 MM40   156 2143 MANSUETO Vito 1968 BA011 A.S. ATLETICA CASTELLANA 54:07 1h51:38
    787 MM65     8 2399 DE GRAZIA Fortunato Luc 1947 BA502 A.S.D. MONTEDORO NOCI 55:17 1h51:39
    788 MM50 112 2421 TRISOLINI Angelo Marino 1959 BA502 A.S.D. MONTEDORO NOCI 55:16 1h51:40
    789 MM45 163 2232 FIORE Domenico 1965 BA039 A.S.D. AMICI STRADA DEL TESORO 52:47 1h51:41
    790 TF    11 2607 BRUNETTI Anna Maria eli 1985 BA555 AVIS PODISTICA MOLA 53:29 1h51:47
    791 MM50 113 1486 DALO' Pasquale 1959 TA432 S.ATL. S.G.BOSCO  PALAGIANELLO 55:03 1h51:48
    792 MF50     4 1293 TODISCO Brigida 1961 FG265 A.DOPOLAVORO FERROVIARIO FG 51:41 1h51:48
    793 MM40   157 2699 DORONZO Emanuele 1971 BA592 BARLETTA SPORTIVA 53:50 1h51:50
    794 MM40   158 2950 DI BIN Paolo 1969 BR113 ATLETICA CASALINI 53:33 1h51:51
    795 MM40   159 2598 MILELLA Giuseppe 1968 BA554 FREE RUNNERS MOLFETTA 53:34 1h51:52
    796 MM60    22 2291 PIEPOLI Gennaro 1952 BA052 BARI ROAD RUNNERS CLUB 53:41 1h51:56
    797 TM    70 2400 DE GRAZIA Adriano 1986 BA502 A.S.D. MONTEDORO NOCI 55:16 1h51:58
    798 MF40    18 2485 SPERTI Alessandra 1970 BA529 A.S. TRANI MARATHON 55:55 1h51:59
    799 MM45 164 2773 DE NICOLO' Antonio 1963 BA599 RUNNING PEOPLE NOICATTARO 53:30 1h51:59
    800 MM45 165 1287 REDDAVIDE Pasquale 1967 FG264 A.S. CULTURALE POD. S. STEFANO 55:11 1h52:08
    801 MM60    23 1162 LUPOLI Giovanni 1952 TA451 A.S.D. ATLETICA DON MILANI 52:35 1h52:09
    802 TM    71 2686 CORNACCHIA Nicola 1978 BA592 BARLETTA SPORTIVA 50:43 1h52:14
    803 MM60    24 2196 PICCIRILLI Stefano 1951 BA025 A.S. AMATORI PUTIGNANO 54:21 1h52:15
    804 MM55    57 2782 SCARPINO Damiano 1956 BA599 RUNNING PEOPLE NOICATTARO 55:09 1h52:17
    805 MM40   160 2769 CACACE Alessandro 1972 BA599 RUNNING PEOPLE NOICATTARO 55:08 1h52:18
    806 TM    72 2864 LASAPONARA Sergio 1982 BA710 A.S.D. GRAVINA FESTINA LENTE! 54:36 1h52:19
    807 MM40 161 2863 LAPOLLA Mario 1971 BA710 A.S.D. GRAVINA FESTINA LENTE! 54:37 1h52:20
    808 MF55     3 1134 TADDEO Pasqua Rosa 1953 TA446 A.S.D. MARATHON MASSAFRA 51:53 1h52:20
    809 MM35 111 1488 MOSCATO Carmelo 1973 TA432 S.ATL. S.G.BOSCO  PALAGIANELLO 57:46 1h52:25
    810 MM45 166 1453 COFANO Giuseppe 1966 TA425 ASD POD. FAGGIANO V.P. SERVICE 55:13 1h52:26
    811 MM50   114 1123 LEPORE Fedele 1958 TA446 A.S.D. MARATHON MASSAFRA 55:13 1h52:27
    812 MM50   115 2447 GRUMO Vito 1960 BA507 A.MARATONETI ANDRIESI 55:53 1h52:28
    813 TF    12 2653 DE CHIRICO Serafina 1978 BA586 A.S.D. ASOPICO RUNNING BARI 53:42 1h52:29
    814 NTF    22 1370 RIZZO Piercosimo 1969 LIB01 LIBERI 57:07 1h52:32
    815 MM55    58 1234 NARDELLI Giovanni 1957 BR143 PODISTICA CAROVIGNO 53:11 1h52:35
    816 MM40 162 2556 DI LAURO Vito 1970 BA550 AVIS IN CORSA CONVERSANO 53:40 1h52:43
    817 MM70 4 2567 LORUSSO Francesco 1939 BA550 AVIS IN CORSA CONVERSANO 53:40 1h52:43
    818 MF40    19 2170 DELFINE Patrizia 1968 BA025 A.S. AMATORI PUTIGNANO 55:33 1h52:44
    819 MM45 167 2973 FLORE Roberto 1967 BR135 ATLETICA CITTA' BIANCA 53:41 1h52:51
    820 MM45 168 1252 ANNOSCIA Roberto 1966 BR148 LE OMBRE DELL'ALBERO 54:56 1h52:52
    821 MM50   116 2443 CANOSA Antonio 1961 BA507 A.MARATONETI ANDRIESI 53:52 1h52:54
    822 MM55    59 2916 DELL'ERBA Marco Nicola 1953 BA714 ALBEROBELLO RUNNING ASD 53:54 1h52:55
    823 MF45 13 2577 TRAVERSA Pierpaola 1966 BA550 AVIS IN CORSA CONVERSANO 55:03 1h52:59
    824 MM60    25 2576 SPERTI Cosimo 1948 BA550 AVIS IN CORSA CONVERSANO 55:02 1h52:59
    825 TF    13 2809 RESTA Eugenia 1985 BA700 A.S.D. NADIR ON THE ROAD - PUT 54:20 1h53:02
    826 MM35 112 2796 GALATOLA Antonello 1977 BA700 A.S.D. NADIR ON THE ROAD - PUT 54:20 1h53:03
    827 MF35    11 2958 URBINELLO Antonella 1974 BR113 ATLETICA CASALINI 52:54 1h53:08
    828 MM45 169 2905 PUGLIESE Orazio 1967 BA713 GIOIA RUNNING A.S.D. 54:42 1h53:10
    829 MF40    20 2267 GIRARDI Isabella 1971 BA047 NUOVA ATL. FEMM. ACQUAVIVA 54:55 1h53:11
    830 MM50   117 1282 CAPRUZZI Giulio 1962 FG264 A.S. CULTURALE POD. S. STEFANO 55:24 1h53:20
    831 MM40 163 2116 MOLFETTA Matteo Gianluc 1971 BA005 AMATORI ATL. ACQUAVIVA 53:40 1h53:21
    832 NTF    23 1368 PIRELLI Antonio 1960 LIB01 LIBERI 54:17 1h53:33
    833 MM50   118 2341 POCCHIARI Savino 1959 BA062 A.S. KANKUDAI 57:48 1h53:35
    834 MF35    12 2575 SOLFRIZZI Rita 1976 BA550 AVIS IN CORSA CONVERSANO 55:03 1h53:44
    835 TM    73 2555 DELFINE Giuseppe 1981 BA550 AVIS IN CORSA CONVERSANO 55:19 1h53:44
    836 MM45 170 1281 CAPPIELLO Donato 1964 FG264 A.S. CULTURALE POD. S. STEFANO 55:11 1h53:45
    837 MM40 164 2429 CAZZORLA Giuseppe 1969 BA505 A.S. QUELLI DELLA PINETA 56:09 1h53:46
    838 MM50   119 2584 DE SARIO Antonio 1960 BA553 ATLETICA ADELFIA 54:27 1h54:00
    839 MM65     9 2156 BIANCO Giovanni 1944 BA025 A.S. AMATORI PUTIGNANO 54:03 1h54:01
    840 MF45 14 2128 ANDRESINI Antonia 1963 BA011 A.S. ATLETICA CASTELLANA 53:50 1h54:02
    841 MM40 165 2272 CESSA Nunziato 1969 BA049 G.S.P. III REGIONE AEREA BARI 52:51 1h54:03
    842 MM40 166 2836 DE PALO Michele 1970 BA705 BITONTO RUNNERS 55:19 1h54:04
    843 TF    14 2691 DELVECCHIO Maria Sterpe 1979 BA592 BARLETTA SPORTIVA 52:23 1h54:05
    844 MM35 113 2593 DE PINTO Sandro 1973 BA554 FREE RUNNERS MOLFETTA 54:21 1h54:06
    845 TM    74 1253 DIBELLO Antonio 1984 BR148 LE OMBRE DELL'ALBERO 55:29 1h54:07
    846 MM60    26 2970 DELL'EDERA Felice 1950 BR135 ATLETICA CITTA' BIANCA 57:20 1h54:26
    847 MM40 167 2853 FIORE Nicola 1970 BA707 DREAM TEAM BARI 50:05 1h54:29
    848 MM40 168 1489 NOTARANGELO Claudio 1968 TA432 S.ATL. S.G.BOSCO  PALAGIANELLO 58:47 1h54:35
    849 MF45    15 2729 TARANTINO FIORENTINO An 1967 BA592 BARLETTA SPORTIVA 55:08 1h54:36
    850 MM50   120 2875 FANTAZZINI Dino 1962 BA711 BIO AMBRA NEW AGE 55:21 1h54:39
    851 MM35 114 2721 PATRUNO Francesco 1974 BA592 BARLETTA SPORTIVA 55:08 1h54:40
    852 MM35 115 2720 PALMITESSA Vincenzo 1973 BA592 BARLETTA SPORTIVA 58:05 1h54:40
    853 TM    75 2483 FERRANTE Domenico 1978 BA529 A.S. TRANI MARATHON 56:28 1h54:45
    854 MF40    21 2941 VENEZIANO Vittoria 1971 BA714 ALBEROBELLO RUNNING ASD 54:50 1h54:46
    855 MF45    16 1450 CALLORI Tiziana 1965 TA425 ASD POD. FAGGIANO V.P. SERVICE 54:36 1h54:52
    856 TM    76 1458 GISONNA Nicola 1982 TA425 ASD POD. FAGGIANO V.P. SERVICE 54:37 1h54:53
    857 NTF    24 1380 ZAZZERA Andrea 1979 LIB01 LIBERI 55:32 1h54:54
    858 MM50   121 2933 RICCI Vitantonio 1958 BA714 ALBEROBELLO RUNNING ASD 56:53 1h55:16
    859 MF45    17 1429 DANZA Grazia 1963 TA423 CLUB RUNNER 87 VALENTE ARREDI 52:42 1h55:17
    860 NTF    25 1361 MANGINI Antonio 1968 LIB01 LIBERI 53:31 1h55:18
    861 MM55    60 1428 BONGERMINO Vito 1957 TA423 CLUB RUNNER 87 VALENTE ARREDI 52:42 1h55:21
    862 NTF    26 1369 RENNA Antonio 1971 LIB01 LIBERI 55:54 1h55:23
    863 MM40 169 2131 CILIBERTI Domenico 1970 BA011 A.S. ATLETICA CASTELLANA 55:53 1h55:24
    864 MM55    61 1108 PULIMENO Vito 1956 TA440 ATHLETIC TEAM PALAGIANO 55:51 1h55:39
    865 MM45 171 2751 CANNONE Giovanni 1966 BA596 A.S.D. ANDRIA RUNS 55:27 1h55:48
    866 MM40 170 2725 RIZZI Giuseppe 1968 BA592 BARLETTA SPORTIVA 54:07 1h55:49
    867 MF35    13 1462 LACOPPOLA Monica 1974 TA425 ASD POD. FAGGIANO V.P. SERVICE 57:54 1h55:50
    868 MM55    62 2347 VITALE Girolamo 1957 BA062 A.S. KANKUDAI 56:43 1h55:50
    869 MM50   122 1457 GALASSO Vittorio 1958 TA425 ASD POD. FAGGIANO V.P. SERVICE 57:53 1h55:50
    870 MM50   123 1449 BONFRATE Vincenzo 1960 TA425 ASD POD. FAGGIANO V.P. SERVICE 57:54 1h55:51
    871 MM40 171 1103 MONGELLI Domenico 1969 TA440 ATHLETIC TEAM PALAGIANO 56:42 1h55:55
    872 MM35 116 2522 SASSI Giuseppe 1976 BA543 MARATHON CLUB MINERVINO 57:31 1h55:56
    873 MM50   124 2277 NARDULLI Saverio 1962 BA049 G.S.P. III REGIONE AEREA BARI 56:28 1h55:57
    874 MF40    23 2929 PICCIARELLI Carmela Ann 1970 BA714 ALBEROBELLO RUNNING ASD 57:17 1h56:06
    875 MM50   125 2343 RUTIGLIANO Francesco 1959 BA062 A.S. KANKUDAI 53:22 1h56:18
    876 MM40 172 2394 BIANCO Massimo 1971 BA502 A.S.D. MONTEDORO NOCI 56:26 1h56:19
    877 MF60     1 2583 VALDENAIRE Francoise 1952 BA551 ASS. NAZIONALE BERSAGLIERI BAR 56:27 1h56:20
    878 MM60    27 2239 TAMMA Francesco 1948 BA039 A.S.D. AMICI STRADA DEL TESORO 54:48 1h56:21
    879 MM40 173 1173 SIMONETTI Salvatore 1968 TA456 TARANTO SPORTIVA 54:19 1h56:22
    880 MM40 174 1189 DI MOTOLI Giovanni 1971 BR138 A.S. TEAM FRANCAVILLA 52:40 1h56:32
    881 MF40    24 2749 BERARDINO Laura 1970 BA596 A.S.D. ANDRIA RUNS 54:47 1h56:33
    882 MM60    28 2486 TAMMACCARO Salvatore 1952 BA529 A.S. TRANI MARATHON 57:09 1h56:34
    883 TM    77 1246 CARDONE Leonardo 1986 BR146 A.S.D. ATLETICA PEZZE DI GRECO 49:22 1h57:01
    884 TM    78 2697 DICORATO Carmine 1979 BA592 BARLETTA SPORTIVA 57:15 1h57:02
    885 MF50     5 1418 DE MARZO Michela 1961 TA408 A.S POD.TARAS SHOPPING SPORT 53:20 1h57:02
    886 MF60     2 2370 LOVIGLIO Pasqua 1949 BA093 ATLETIC CLUB ALTAMURA 54:30 1h57:04
    887 MM65    10 2371 RAGONE Giovanni 1946 BA093 ATLETIC CLUB ALTAMURA 54:29 1h57:05
    888 MF35    14 1102 MONACO Marilena 1975 TA440 ATHLETIC TEAM PALAGIANO 55:09 1h57:06
    889 MM65    11 2925 LIPPOLIS Domenico 1947 BA714 ALBEROBELLO RUNNING ASD 55:17 1h57:07
    890 MM35 117 2783 TACCOGNA Vito 1975 BA599 RUNNING PEOPLE NOICATTARO 49:16 1h57:15
    891 MM50   126 1473 SANTACESARIA Giuseppe 1958 TA425 ASD POD. FAGGIANO V.P. SERVICE 57:54 1h57:17
    892 MM70 5 2230 CARESSA Pietro 1938 BA039 A.S.D. AMICI STRADA DEL TESORO 54:49 1h57:18
    893 TM    79 2568 LOSAVIO Francesco 1980 BA550 AVIS IN CORSA CONVERSANO 54:44 1h57:19
    894 MM45 172 1481 BARULLI Mario 1963 TA432 S.ATL. S.G.BOSCO  PALAGIANELLO 58:48 1h57:20
    895 ASF    10 1232 LANZILOTTI Roberta I 1990 BR143 PODISTICA CAROVIGNO 57:29 1h57:21
    896 MF40    25 2752 CHIEPPA Teresa 1969 BA596 A.S.D. ANDRIA RUNS 56:20 1h57:22
    897 TM    80 2562 LATTARULO Gianpaolo 1979 BA550 AVIS IN CORSA CONVERSANO 55:19 1h57:34
    898 MM50   127 2547 DELLA ROSA Eliodoro Fra 1962 BA546 POD. VALLE D'ITRIA LOCOROTONDO 53:16 1h57:34
    899 MM50   128 2872 CARELLA Francesco 1962 BA711 BIO AMBRA NEW AGE 53:55 1h57:43
    900 NTF    27 1373 RUSSANO Francesco 1966 LIB01 LIBERI 53:10 1h57:46
    901 MM45 173 1327 RUGGIO Fausto 1965 LE307 S.S. A.V.I.S.  SPORT NOVOLI 52:06 1h57:48
    902 MM50   129 2667 CEGLIE Paolo 1961 BA587 LA PIETRA 58:13 1h57:49
    903 TM    81 2672 ANSANI Vincenzo 1985 BA592 BARLETTA SPORTIVA 58:14 1h57:50
    904 MM60    29 2436 SANTORO Francesco 1952 BA505 A.S. QUELLI DELLA PINETA 58:39 1h57:51
    905 MM75 1 2680 CARAGNANO Giuseppe 1937 BA592 BARLETTA SPORTIVA 59:33 1h57:51
    906 MM60    30 2243 PELLEGRINO Cosimo 1951 BA041 ATLETICA PRO CANOSA 57:59 1h57:52
    907 MM45 174 2831 CAIATI Michele 1963 BA705 BITONTO RUNNERS 59:02 1h58:05
    908 NTF    28 1374 SCALTRITO Salvatore 1977 LIB01 LIBERI 57:47 1h58:06
    909 MM60    31 2319 MUOLO Marino 1952 BA058 ATLETICA  MONOPOLI 56:40 1h58:17
    910 MM35 118 1211 CAPOCHIANI Giuseppe 1973 BR141 POLISPORT CICLO CLUB FASANO 56:18 1h58:17
    911 MM50   130 2885 SOZIO Antonio 1959 BA711 BIO AMBRA NEW AGE 55:19 1h58:19
    912 MM40 175 2909 SCHIAVONE Giovanni 1969 BA713 GIOIA RUNNING A.S.D. 56:04 1h58:23
    913 TF    15 2893 CASTELLANETA Erica 1988 BA713 GIOIA RUNNING A.S.D. 54:43 1h58:23
    914 MM40 176 2903 PENNAROLA Fabio 1970 BA713 GIOIA RUNNING A.S.D. 55:09 1h58:23
    915 MM60    32 2569 LOVECCHIO Luigi 1952 BA550 AVIS IN CORSA CONVERSANO 55:02 1h58:23
    916 MM40 177 2314 LACITIGNOLA Nicolo' 1968 BA058 ATLETICA  MONOPOLI 53:31 1h58:24
    917 MM65    12 1225 GALIZIA Giuseppe 1944 BR143 PODISTICA CAROVIGNO 57:29 1h58:25
    918 MM50   131 2908 RIZZI Francesco 1960 BA713 GIOIA RUNNING A.S.D. 56:04 1h58:47
    919 MF40    26 2767 SANTOVITO Sabina 1969 BA596 A.S.D. ANDRIA RUNS 53:52 1h58:48
    920 NTF    29 1376 SEBASTIANI Vincenzo 1962 LIB01 LIBERI 55:54 1h58:50
    921 MF40    27 2152 VALENTE Elisabetta 1971 BA011 A.S. ATLETICA CASTELLANA 55:54 1h58:50
    922 MM50   132 2419 SILVESTRI Giampietro 1959 BA502 A.S.D. MONTEDORO NOCI 59:33 1h58:52
    923 MM55    63 2392 ANGIULLI Giacinto 1956 BA502 A.S.D. MONTEDORO NOCI 59:33 1h58:53
    924 MM50   133 2270 BENEDETTO Giovanni 1959 BA049 G.S.P. III REGIONE AEREA BARI 58:34 1h58:54
    925 MM45 175 2401 DISPOTO Nicola 1966 BA502 A.S.D. MONTEDORO NOCI 59:34 1h58:55
    926 MM45 176 2169 DELFINE Pietro 1964 BA025 A.S. AMATORI PUTIGNANO 58:35 1h58:56
    927 MM55    64 1111 BASTA Giuseppe 1956 TA441 G.S. PAOLOTTI - ATL MARTINA 56:42 1h58:59
    928 MM45 177 1336 PERRONE Vincenzo 1964 LE603 G.S. SILENZIOSI LECCE 56:16 1h59:12
    929 MM55    65 1251 PINTO Marco 1957 BR146 A.S.D. ATLETICA PEZZE DI GRECO 53:56 1h59:13
    930 MM50   134 2247 CARENZA Michele 1958 BA043 G.S.ATLETICA AMATORI CORATO 57:56 1h59:14
    931 MM50   135 2884 RUSSO Lorenzo 1962 BA711 BIO AMBRA NEW AGE 56:58 1h59:20
    932 MM55    66 2434 LOSETO Francesco 1955 BA505 A.S. QUELLI DELLA PINETA 58:40 1h59:22
    933 MM55    67 2130 CENTRONE Natale 1954 BA011 A.S. ATLETICA CASTELLANA 57:22 1h59:23
    934 MM55    68 2870 ARMENISE Michele 1955 BA711 BIO AMBRA NEW AGE 55:43 1h59:24
    935 MM60    33 1235 QUARTULLI Giuseppe 1948 BR143 PODISTICA CAROVIGNO 55:44 1h59:25
    936 MF35    15 2766 REMPEL Julia 1974 BA596 A.S.D. ANDRIA RUNS 57:17 1h59:31
    937 MM45 178 2719 PALMITESSA Arturo 1966 BA592 BARLETTA SPORTIVA 57:16 1h59:40
    938 MM45 179 2881 MASTRORILLO Francesco 1966 BA711 BIO AMBRA NEW AGE 54:07 1h59:44
    939 MF45    18 2747 AVANTARIO Raffaella 1964 BA596 A.S.D. ANDRIA RUNS 57:08 1h59:59
    940 MM40 178 2746 ADDARIO Franco 1968 BA596 A.S.D. ANDRIA RUNS 57:08 2h00:01
    941 MF45    19 2132 CISTERNINO Clementina 1967 BA011 A.S. ATLETICA CASTELLANA 57:18 2h00:07
    942 MM50   136 2142 LUISI Pasquale 1960 BA011 A.S. ATLETICA CASTELLANA 57:34 2h00:07
    943 MM50   137 2913 COLUCCI Graziano 1958 BA714 ALBEROBELLO RUNNING ASD 57:17 2h00:17
    944 MM35 119 1469 NISI Roberto 1977 TA425 ASD POD. FAGGIANO V.P. SERVICE 57:15 2h00:18
    945 MM40 179 2572 PACE Vito Domenico 1968 BA550 AVIS IN CORSA CONVERSANO 53:20 2h00:42
    946 MM45 180 2904 PONTE Nunzio 1964 BA713 GIOIA RUNNING A.S.D. 59:46 2h00:43
    947 MM45 181 1386 CARIGLIA Leonardo 1967 MT564 LUCANI FREE RUNNERS 59:02 2h00:47
    948 MM60    34 2869 ARMENISE Fedele 1951 BA711 BIO AMBRA NEW AGE 58:04 2h00:56
    949 MF45    20 2915 D'ORIA Aurelia 1967 BA714 ALBEROBELLO RUNNING ASD 55:21 2h00:59
    950 MF40    28 2755 DI CHIO Angela 1970 BA596 A.S.D. ANDRIA RUNS 56:20 2h01:04
    951 MM40 180 2681 CARONE Giovanni 1969 BA592 BARLETTA SPORTIVA 1h00:38 2h01:05
    952 MM60    35 1455 DONATELLI Massimo 1952 TA425 ASD POD. FAGGIANO V.P. SERVICE 57:57 2h01:16
    953 MF35    16 2935 SABATELLI Angela 1973 BA714 ALBEROBELLO RUNNING ASD 58:27 2h01:20
    954 MM60    36 2928 NAPOLETANO Paolo Luigi 1948 BA714 ALBEROBELLO RUNNING ASD 58:27 2h01:21
    955 MM40 181 2521 PISTILLO Luciano 1969 BA543 MARATHON CLUB MINERVINO 55:56 2h01:23
    956 MM45 182 2876 GIORGIO Pietro 1964 BA711 BIO AMBRA NEW AGE 55:39 2h01:27
    957 MF40    29 2761 LOPS Grazia 1971 BA596 A.S.D. ANDRIA RUNS 57:42 2h01:47
    958 MF40    30 2754 COVELLI Maria Teresa 1972 BA596 A.S.D. ANDRIA RUNS 57:58 2h01:48
    959 MM55    69 2523 VITAGLIANO Carlo 1953 BA543 MARATHON CLUB MINERVINO 55:12 2h01:54
    960 NTF    30 1378 TEMPERINI Giorgio 1979 LIB01 LIBERI 56:51 2h01:58
    961 MF45    21 1149 RAGUSO Angela 1967 TA450 GRUPPO MARATHON MARTINA FRANCA 58:24 2h02:23
    962 TM    83 1150 RAGUSO Raffaele 1982 TA450 GRUPPO MARATHON MARTINA FRANCA 58:23 2h02:24
    963 MF45    22 1244 CALIANNO Porzianna 1966 BR146 A.S.D. ATLETICA PEZZE DI GRECO 58:36 2h02:27
    964 NTF    31 1344 CAPURSO  Ilenia Angela 1981 LIB01 LIBERI 1h00:29 2h02:52
    965 MF45    23 2762 MEMEO Annamaria 1967 BA596 A.S.D. ANDRIA RUNS 57:58 2h02:52
    966 MM55    70 2748 BARILE Michele 1955 BA596 A.S.D. ANDRIA RUNS 57:59 2h02:53
    967 MM50   138 1459 GRANIGLIA Giovanni 1958 TA425 ASD POD. FAGGIANO V.P. SERVICE 1h00:40 2h03:00
    968 MM60    37 2943 SCATIGNO Claudio 1948 BR103 ATLETICA AMATORI BRINDISI 1h00:03 2h03:01
    969 MM45 183 2589 CALDAROLA Paolo 1963 BA554 FREE RUNNERS MOLFETTA 1h00:01 2h03:04
    970 MF40    31 2760 LASTELLA Rosa 1970 BA596 A.S.D. ANDRIA RUNS 57:58 2h03:12
    971 MM45 184 2467 DE LUISI Raffaele 1966 BA521 A.S. DOF AMATORI TURI 58:49 2h03:15
    972 MM65    13 2852 DE LUCA Luigi 1945 BA707 DREAM TEAM BARI 58:00 2h03:22
    973 MM50   139 2416 RUGGIERO Teodoro 1960 BA502 A.S.D. MONTEDORO NOCI 57:45 2h03:46
    974 MM50   140 1317 MAGGIO Antonio 1959 FM020 A.POD. VALTENNA 57:46 2h04:02
    975 MM60    38 2238 PERRELLI Michele 1950 BA039 A.S.D. AMICI STRADA DEL TESORO 1h02:14 2h05:05
    976 MM45 185 2890 AVEZZANO Vittorio 1963 BA713 GIOIA RUNNING A.S.D. 59:47 2h05:10
    977 MF50     6 2246 CACCAVO Maria Teresa 1962 BA043 G.S.ATLETICA AMATORI CORATO 58:42 2h05:12
    978 MM55    71 1474 SICILIANO Maurizio 1956 TA425 ASD POD. FAGGIANO V.P. SERVICE 1h00:11 2h05:15
    979 MM50   141 2753 CIOCE Pietro 1960 BA596 A.S.D. ANDRIA RUNS 57:58 2h05:16
    980 MM50   142 1305 PUGLIESE Domenico 1960 FG284 MARGHERITA DI SAVOIA RUNNERS 1h00:37 2h05:45
    981 MM40 182 2659 SMALDINO Francesco 1971 BA586 A.S.D. ASOPICO RUNNING BARI 1h01:31 2h06:14
    982 MF35    17 1475 VALDEVIES Adriana 1973 TA425 ASD POD. FAGGIANO V.P. SERVICE 1h01:32 2h06:17
    983 MM45 186 2252 DE PALMA Marco 1965 BA043 G.S.ATLETICA AMATORI CORATO 59:10 2h06:17
    984 MM40 183 2712 LATTANZIO Riccardo 1968 BA592 BARLETTA SPORTIVA 59:36 2h06:18
    985 MM50   143 2339 MICHELUCCI Michele 1960 BA062 A.S. KANKUDAI 1h00:39 2h06:21
    986 MM50   144 2824 SIMONE Rocco 1959 BA703 HAPPY RUNNERS ALTAMURA 57:34 2h06:33
    987 MF40    32 2702 FIORELLA Giuseppina 1971 BA592 BARLETTA SPORTIVA 1h00:38 2h06:47
    988 MF40    33 2715 MAFFIONE Sara 1970 BA592 BARLETTA SPORTIVA 1h00:31 2h06:47
    989 MM50   145 2800 LAERA Domenico 1960 BA700 A.S.D. NADIR ON THE ROAD - PUT 56:46 2h06:48
    990 MF40    34 2798 GOFFREDO Maria 1968 BA700 A.S.D. NADIR ON THE ROAD - PUT 1h01:03 2h07:45
    991 MM40 184 2805 MARIO Antonio 1968 BA700 A.S.D. NADIR ON THE ROAD - PUT 1h01:04 2h07:50
    992 MM55    72 2374 CARBONE Alberto 1956 BA097 SPORT CENTER A.S.D. 58:54 2h07:51
    993 MM50   146 1302 MINAFRA Francesco 1962 FG284 MARGHERITA DI SAVOIA RUNNERS 1h00:37 2h08:05
    994 MM50   147 1301 IODICE Giuseppe 1960 FG284 MARGHERITA DI SAVOIA RUNNERS 1h00:38 2h08:14
    995 MM45 187 2939 TRITTO Carlo 1964 BA714 ALBEROBELLO RUNNING ASD 58:27 2h08:16
    996 MF40    35 1332 MANCA Simonetta 1969 LE601 A.S. ACTION RUNNING MONTERONI 58:35 2h08:20
    997 MM45 199 1471 PAPPOLLA Maurizio 1963 TA425 ASD POD. FAGGIANO V.P. SERVICE 1h03:24 2h08:32
    998 MM55    73 2917 DORMIO Francesco Giulia 1954 BA714 ALBEROBELLO RUNNING ASD 1h03:35 2h08:33
    999 MM75 2 2406 LIPPOLIS Vitantonio 1936 BA502 A.S.D. MONTEDORO NOCI 1h00:01 2h08:38
    1000 MF50     7 2415 RITELLA Maria Luigia 1960 BA502 A.S.D. MONTEDORO NOCI 59:40 2h09:24
    1001 MM35 120 2175 FACCIO Gabriele 1977 BA025 A.S. AMATORI PUTIGNANO 1h00:46 2h09:26
    1002 MM55    74 2198 SANSOLINO Vito 1956 BA025 A.S. AMATORI PUTIGNANO 1h00:46 2h09:26
    1003 MF40    36 2173 DIDONNA Agnese 1972 BA025 A.S. AMATORI PUTIGNANO 1h00:46 2h09:26
    1004 MF50     8 2136 DEROBERTIS Maria 1959 BA011 A.S. ATLETICA CASTELLANA 58:10 2h09:36
    1005 MM40 185 2934 RINALDI Lorenzo 1970 BA714 ALBEROBELLO RUNNING ASD 1h00:56 2h09:44
    1006 MF40 37 2140 LATTARULO Marianna 1968 BA011 A.S. ATLETICA CASTELLANA 1h03:28 2h09:55
    1007 NTF    32 1346 CONTENTO Lucia 1978 LIB01 LIBERI 1h03:28 2h09:55
    1008 MM50   148 2138 LAERA Stefano 1958 BA011 A.S. ATLETICA CASTELLANA 59:34 2h09:55
    1009 NTF    33 1358 LIPPOLIS Santina 1972 LIB01 LIBERI 1h03:28 2h09:55
    1010 MM55    75 2139 LANZILOTTA Francesco 1954 BA011 A.S. ATLETICA CASTELLANA 55:41 2h09:55
    1011 MM45 189 2899 LONGO Alessandro 1963 BA713 GIOIA RUNNING A.S.D. 1h01:13 2h10:45
    1012 MM55    76 2479 GRASSI Giuseppe 1953 BA526 PODISTICA ALBEROBELLO A.S.D. 1h06:45 2h10:51
    1013 MM45 190 2896 GENTILE Antonio 1967 BA713 GIOIA RUNNING A.S.D. 1h01:14 2h12:17
    1014 MF55     4 2527 CASSATELLA Franca 1957 BA544 ATLETICA DISFIDA DI BARLETTA 1h03:09 2h12:32
    1015 MM50   149 2532 DORONZO Gennaro 1958 BA544 ATLETICA DISFIDA DI BARLETTA 1h03:08 2h12:32
    1016 MF40 38 2927 MIRAGLIA Angela 1971 BA714 ALBEROBELLO RUNNING ASD 1h03:38 2h13:25
    1017 MM65    14 2759 LAMORTE Giambattista 1945 BA596 A.S.D. ANDRIA RUNS 1h01:36 2h13:26
    1018 MM65    15 2758 IEVA Francesco 1946 BA596 A.S.D. ANDRIA RUNS 1h01:36 2h13:26
    1019 MM65    16 2922 GIROLAMO Tommaso 1943 BA714 ALBEROBELLO RUNNING ASD 1h03:35 2h13:35
    1020 MM60    39 2858 SCATTARELLI Giuseppe 1950 BA707 DREAM TEAM BARI 1h03:48 2h14:54
    1021 MM55    77 1500 IACOBINO Raffaele 1956 TA440 ATHLETIC TEAM PALAGIANO 1h01:26 2h15:14
    1022 MF40 39 2716 MOCCIA Maria 1969 BA592 BARLETTA SPORTIVA 1h04:40 2h15:24
    1023 MM55    78 1294 VIGIANO Luigi 1954 FG265 A.DOPOLAVORO FERROVIARIO FG 1h01:02 2h16:06
    1024 MF55     5 2459 DE PALMA Maria Teresa 1954 BA517 ASS. DILETTANTIST BARIMARATONA 1h02:40 2h19:07
    1025 MM55    79 2333 DE MEDIO Giancarlo 1954 BA062 A.S. KANKUDAI 1h02:41 2h20:24
    1026 MM55    80 1487 LIPPOLIS Nicola 1955 TA432 S.ATL. S.G.BOSCO  PALAGIANELLO 1h08:11 2h20:25
    1027 MM45 191 2301 BARNABA Francesco 1966 BA058 ATLETICA  MONOPOLI 56:17 2h20:26
    1028 MM70 6 2731 TORRE Michele 1941 BA592 BARLETTA SPORTIVA 1h06:12 2h20:27
    1029 TF    16 1101 INFANTE Stefania 1978 TA440 ATHLETIC TEAM PALAGIANO 1h05:16 2h22:02
    1030 MM75 3 1215 L'ABBATE Stefano 1935 BR141 POLISPORT CICLO CLUB FASANO 1h10:45 2h23:52
    1031 MF65     1 2619 SAMBOCO Antonietta 1946 BA580 A.S.D.  AGORA' 49:38 2h23:53
    1032 MM50 150 2618 LECCESE Natale 1959 BA580 A.S.D.  AGORA' 1h08:27 2h24:12
    1033 ASM    11 1258 BOSCO Vincenzo I 1981 CZ009 LIBERTAS ATL.LAMEZIA 1h03:37 2h24:16
    1034 MF50     9 1267 MASTROIANNI Aurora 1959 CZ009 LIBERTAS ATL.LAMEZIA 1h04:45 2h25:48
    1035 MM60    40 2159 BUONSANTE Mario 1952 BA025 A.S. AMATORI PUTIGNANO 1h08:04 2h26:21
    1036 MM40 186 1403 MARCODOPPIDO Rocco 1970 PZ053 PODISTICA AMATORI POTENZA 1h03:25 2h26:22
    1037 MM60    41 2362 RIZZI Domenico 1949 BA082 ATLETICA TOMMASO ASSI TRANI 1h08:48 2h30:19
    1038 MM60    42 2608 BRUNETTI Vitantonio 1952 BA555 AVIS PODISTICA MOLA 1h08:49 2h30:20
    1039 MM60    43 2225 SABATO Michele 1949 BA029 A.A.'E. MANZARI' CASAMASSIMA 1h08:50 2h32:12
    1040 MM70 7 2176 FANIUOLO Mario 1941 BA025 A.S. AMATORI PUTIGNANO 1h10:21 2h33:56
    1041 MM40 187 1311 DI GESU' Giuseppe 1972 FG285 ATLETICA TRINITAPOLI 43:35 2h34:37
    1042 MM70 8 2496 BUZZOTTA Giovanni 1940 BA535 A.S. ATLETICA POLIGNANO 1h08:27 2h35:25
    1043 MM55 81 1402 DI FRANCO Antonio 1956 PZ053 PODISTICA AMATORI POTENZA 46:04 2h37:28
    1044 MM75 4 2190 MIRIZZI Vincenzo 1933 BA025 A.S. AMATORI PUTIGNANO 1h10:46 2h37:49